<?xml version="1.0" encoding="UTF-8" standalone="no" ?>
<gpx xmlns="http://www.topografix.com/GPX/1/1" xmlns:xsi="http://www.w3.org/2001/XMLSchema-instance" xsi:schemaLocation="http://www.topografix.com/GPX/1/1 http://www.topografix.com/GPX/1/1/gpx.xsd" version="1.1" creator="VisuGPX - https://www.visugpx.com">
  <metadata>
    <name>3a miniére</name>
    <desc><![CDATA[la miniére 10.5 ]]></desc>
  </metadata>
  <trk>
    <name><![CDATA[2014-10-11-07-36-41 on GPSies.com]]></name>
    <trkseg>
      <trkpt lat="48.77983" lon="2.09578">
        <ele>145.619</ele>
        <time>2014-10-11T07:36:42Z</time>
      </trkpt>
      <trkpt lat="48.7798" lon="2.09574">
        <ele>144.508</ele>
        <time>2014-10-11T07:36:48Z</time>
      </trkpt>
      <trkpt lat="48.77976" lon="2.09571">
        <ele>143.988</ele>
        <time>2014-10-11T07:36:53Z</time>
      </trkpt>
      <trkpt lat="48.77973" lon="2.09566">
        <ele>148.504</ele>
        <time>2014-10-11T07:36:57Z</time>
      </trkpt>
      <trkpt lat="48.77968" lon="2.09562">
        <ele>152.121</ele>
        <time>2014-10-11T07:37:01Z</time>
      </trkpt>
      <trkpt lat="48.77966" lon="2.0956">
        <ele>153.039</ele>
        <time>2014-10-11T07:37:02Z</time>
      </trkpt>
      <trkpt lat="48.77968" lon="2.09556">
        <ele>155.705</ele>
        <time>2014-10-11T07:37:05Z</time>
      </trkpt>
      <trkpt lat="48.77965" lon="2.09544">
        <ele>162.032</ele>
        <time>2014-10-11T07:37:11Z</time>
      </trkpt>
      <trkpt lat="48.77964" lon="2.0954">
        <ele>162.333</ele>
        <time>2014-10-11T07:37:13Z</time>
      </trkpt>
      <trkpt lat="48.7796" lon="2.09527">
        <ele>152.738</ele>
        <time>2014-10-11T07:37:19Z</time>
      </trkpt>
      <trkpt lat="48.77957" lon="2.09513">
        <ele>147.094</ele>
        <time>2014-10-11T07:37:25Z</time>
      </trkpt>
      <trkpt lat="48.77955" lon="2.09508">
        <ele>145.672</ele>
        <time>2014-10-11T07:37:27Z</time>
      </trkpt>
      <trkpt lat="48.77955" lon="2.09497">
        <ele>147.139</ele>
        <time>2014-10-11T07:37:32Z</time>
      </trkpt>
      <trkpt lat="48.77956" lon="2.09493">
        <ele>149.791</ele>
        <time>2014-10-11T07:37:34Z</time>
      </trkpt>
      <trkpt lat="48.77955" lon="2.09479">
        <ele>155.781</ele>
        <time>2014-10-11T07:37:39Z</time>
      </trkpt>
      <trkpt lat="48.7795" lon="2.09467">
        <ele>155.606</ele>
        <time>2014-10-11T07:37:44Z</time>
      </trkpt>
      <trkpt lat="48.77946" lon="2.09458">
        <ele>158.278</ele>
        <time>2014-10-11T07:37:50Z</time>
      </trkpt>
      <trkpt lat="48.77946" lon="2.09452">
        <ele>162.174</ele>
        <time>2014-10-11T07:37:52Z</time>
      </trkpt>
      <trkpt lat="48.77941" lon="2.09433">
        <ele>164.811</ele>
        <time>2014-10-11T07:37:58Z</time>
      </trkpt>
      <trkpt lat="48.77938" lon="2.0942">
        <ele>164.485</ele>
        <time>2014-10-11T07:38:02Z</time>
      </trkpt>
      <trkpt lat="48.77935" lon="2.09401">
        <ele>168.659</ele>
        <time>2014-10-11T07:38:08Z</time>
      </trkpt>
      <trkpt lat="48.77933" lon="2.09395">
        <ele>170.145</ele>
        <time>2014-10-11T07:38:10Z</time>
      </trkpt>
      <trkpt lat="48.7793" lon="2.09389">
        <ele>169.39</ele>
        <time>2014-10-11T07:38:13Z</time>
      </trkpt>
      <trkpt lat="48.77924" lon="2.09375">
        <ele>164.759</ele>
        <time>2014-10-11T07:38:22Z</time>
      </trkpt>
      <trkpt lat="48.77922" lon="2.09366">
        <ele>160.175</ele>
        <time>2014-10-11T07:38:27Z</time>
      </trkpt>
      <trkpt lat="48.77919" lon="2.09354">
        <ele>163.339</ele>
        <time>2014-10-11T07:38:34Z</time>
      </trkpt>
      <trkpt lat="48.77917" lon="2.09342">
        <ele>168.19</ele>
        <time>2014-10-11T07:38:40Z</time>
      </trkpt>
      <trkpt lat="48.77914" lon="2.09325">
        <ele>171.728</ele>
        <time>2014-10-11T07:38:45Z</time>
      </trkpt>
      <trkpt lat="48.77912" lon="2.09322">
        <ele>169.059</ele>
        <time>2014-10-11T07:38:48Z</time>
      </trkpt>
      <trkpt lat="48.77908" lon="2.09309">
        <ele>169.798</ele>
        <time>2014-10-11T07:38:54Z</time>
      </trkpt>
      <trkpt lat="48.77907" lon="2.09305">
        <ele>166.908</ele>
        <time>2014-10-11T07:38:56Z</time>
      </trkpt>
      <trkpt lat="48.77907" lon="2.0929">
        <ele>164.498</ele>
        <time>2014-10-11T07:39:03Z</time>
      </trkpt>
      <trkpt lat="48.77905" lon="2.09285">
        <ele>165.629</ele>
        <time>2014-10-11T07:39:08Z</time>
      </trkpt>
      <trkpt lat="48.77902" lon="2.09245">
        <ele>186.113</ele>
        <time>2014-10-11T07:39:20Z</time>
      </trkpt>
      <trkpt lat="48.77908" lon="2.09233">
        <ele>200.374</ele>
        <time>2014-10-11T07:39:27Z</time>
      </trkpt>
      <trkpt lat="48.77911" lon="2.09229">
        <ele>204.076</ele>
        <time>2014-10-11T07:39:29Z</time>
      </trkpt>
      <trkpt lat="48.77919" lon="2.0921">
        <ele>206.703</ele>
        <time>2014-10-11T07:39:35Z</time>
      </trkpt>
      <trkpt lat="48.77927" lon="2.09196">
        <ele>205.671</ele>
        <time>2014-10-11T07:39:40Z</time>
      </trkpt>
      <trkpt lat="48.7794" lon="2.09187">
        <ele>202.92</ele>
        <time>2014-10-11T07:39:47Z</time>
      </trkpt>
      <trkpt lat="48.77949" lon="2.09182">
        <ele>198.459</ele>
        <time>2014-10-11T07:39:51Z</time>
      </trkpt>
      <trkpt lat="48.77955" lon="2.09179">
        <ele>198.339</ele>
        <time>2014-10-11T07:39:56Z</time>
      </trkpt>
      <trkpt lat="48.77964" lon="2.09171">
        <ele>194.078</ele>
        <time>2014-10-11T07:40:03Z</time>
      </trkpt>
      <trkpt lat="48.77966" lon="2.09168">
        <ele>194.258</ele>
        <time>2014-10-11T07:40:05Z</time>
      </trkpt>
      <trkpt lat="48.77968" lon="2.09156">
        <ele>191.658</ele>
        <time>2014-10-11T07:40:12Z</time>
      </trkpt>
      <trkpt lat="48.77969" lon="2.09154">
        <ele>191.208</ele>
        <time>2014-10-11T07:40:13Z</time>
      </trkpt>
      <trkpt lat="48.7797" lon="2.09148">
        <ele>185.607</ele>
        <time>2014-10-11T07:40:18Z</time>
      </trkpt>
      <trkpt lat="48.77976" lon="2.09138">
        <ele>189.791</ele>
        <time>2014-10-11T07:40:25Z</time>
      </trkpt>
      <trkpt lat="48.77984" lon="2.09128">
        <ele>191.951</ele>
        <time>2014-10-11T07:40:31Z</time>
      </trkpt>
      <trkpt lat="48.77992" lon="2.09117">
        <ele>194.881</ele>
        <time>2014-10-11T07:40:37Z</time>
      </trkpt>
      <trkpt lat="48.77994" lon="2.09111">
        <ele>195.683</ele>
        <time>2014-10-11T07:40:41Z</time>
      </trkpt>
      <trkpt lat="48.78" lon="2.09093">
        <ele>203.813</ele>
        <time>2014-10-11T07:40:49Z</time>
      </trkpt>
      <trkpt lat="48.78005" lon="2.0908">
        <ele>206.704</ele>
        <time>2014-10-11T07:40:54Z</time>
      </trkpt>
      <trkpt lat="48.78013" lon="2.09068">
        <ele>211.073</ele>
        <time>2014-10-11T07:40:59Z</time>
      </trkpt>
      <trkpt lat="48.78019" lon="2.09057">
        <ele>207.881</ele>
        <time>2014-10-11T07:41:04Z</time>
      </trkpt>
      <trkpt lat="48.7802" lon="2.09053">
        <ele>209.641</ele>
        <time>2014-10-11T07:41:05Z</time>
      </trkpt>
      <trkpt lat="48.78026" lon="2.09044">
        <ele>206.57</ele>
        <time>2014-10-11T07:41:10Z</time>
      </trkpt>
      <trkpt lat="48.7803" lon="2.09032">
        <ele>196.528</ele>
        <time>2014-10-11T07:41:15Z</time>
      </trkpt>
      <trkpt lat="48.78038" lon="2.09025">
        <ele>193.588</ele>
        <time>2014-10-11T07:41:19Z</time>
      </trkpt>
      <trkpt lat="48.78048" lon="2.09019">
        <ele>187.818</ele>
        <time>2014-10-11T07:41:25Z</time>
      </trkpt>
      <trkpt lat="48.78056" lon="2.0901">
        <ele>185.879</ele>
        <time>2014-10-11T07:41:31Z</time>
      </trkpt>
      <trkpt lat="48.78062" lon="2.09001">
        <ele>191.031</ele>
        <time>2014-10-11T07:41:36Z</time>
      </trkpt>
      <trkpt lat="48.78062" lon="2.08994">
        <ele>193.252</ele>
        <time>2014-10-11T07:41:41Z</time>
      </trkpt>
      <trkpt lat="48.78058" lon="2.08978">
        <ele>187.369</ele>
        <time>2014-10-11T07:41:48Z</time>
      </trkpt>
      <trkpt lat="48.78055" lon="2.08967">
        <ele>176.447</ele>
        <time>2014-10-11T07:41:53Z</time>
      </trkpt>
      <trkpt lat="48.78056" lon="2.08948">
        <ele>158.626</ele>
        <time>2014-10-11T07:42:01Z</time>
      </trkpt>
      <trkpt lat="48.7806" lon="2.0894">
        <ele>151.757</ele>
        <time>2014-10-11T07:42:06Z</time>
      </trkpt>
      <trkpt lat="48.78068" lon="2.08931">
        <ele>148.538</ele>
        <time>2014-10-11T07:42:12Z</time>
      </trkpt>
      <trkpt lat="48.78069" lon="2.0893">
        <ele>148.808</ele>
        <time>2014-10-11T07:42:13Z</time>
      </trkpt>
      <trkpt lat="48.78079" lon="2.08919">
        <ele>148.829</ele>
        <time>2014-10-11T07:42:20Z</time>
      </trkpt>
      <trkpt lat="48.78092" lon="2.08904">
        <ele>149.571</ele>
        <time>2014-10-11T07:42:29Z</time>
      </trkpt>
      <trkpt lat="48.78097" lon="2.08885">
        <ele>147.139</ele>
        <time>2014-10-11T07:42:37Z</time>
      </trkpt>
      <trkpt lat="48.78098" lon="2.08861">
        <ele>145.04</ele>
        <time>2014-10-11T07:42:48Z</time>
      </trkpt>
      <trkpt lat="48.78097" lon="2.08848">
        <ele>145.33</ele>
        <time>2014-10-11T07:42:55Z</time>
      </trkpt>
      <trkpt lat="48.78095" lon="2.08835">
        <ele>146.459</ele>
        <time>2014-10-11T07:43:02Z</time>
      </trkpt>
      <trkpt lat="48.78092" lon="2.08818">
        <ele>147.649</ele>
        <time>2014-10-11T07:43:10Z</time>
      </trkpt>
      <trkpt lat="48.78089" lon="2.08799">
        <ele>152.312</ele>
        <time>2014-10-11T07:43:18Z</time>
      </trkpt>
      <trkpt lat="48.78087" lon="2.08786">
        <ele>154.571</ele>
        <time>2014-10-11T07:43:24Z</time>
      </trkpt>
      <trkpt lat="48.7808" lon="2.08775">
        <ele>156.41</ele>
        <time>2014-10-11T07:43:30Z</time>
      </trkpt>
      <trkpt lat="48.78069" lon="2.08763">
        <ele>159.183</ele>
        <time>2014-10-11T07:43:37Z</time>
      </trkpt>
      <trkpt lat="48.7806" lon="2.08754">
        <ele>159.41</ele>
        <time>2014-10-11T07:43:43Z</time>
      </trkpt>
      <trkpt lat="48.78052" lon="2.08747">
        <ele>166.841</ele>
        <time>2014-10-11T07:43:49Z</time>
      </trkpt>
      <trkpt lat="48.78046" lon="2.08737">
        <ele>172.743</ele>
        <time>2014-10-11T07:43:54Z</time>
      </trkpt>
      <trkpt lat="48.78044" lon="2.08727">
        <ele>175.873</ele>
        <time>2014-10-11T07:43:58Z</time>
      </trkpt>
      <trkpt lat="48.78041" lon="2.08712">
        <ele>181.564</ele>
        <time>2014-10-11T07:44:05Z</time>
      </trkpt>
      <trkpt lat="48.78042" lon="2.08709">
        <ele>181.634</ele>
        <time>2014-10-11T07:44:06Z</time>
      </trkpt>
      <trkpt lat="48.78045" lon="2.08694">
        <ele>179.634</ele>
        <time>2014-10-11T07:44:12Z</time>
      </trkpt>
      <trkpt lat="48.78051" lon="2.08682">
        <ele>174.711</ele>
        <time>2014-10-11T07:44:18Z</time>
      </trkpt>
      <trkpt lat="48.78056" lon="2.08666">
        <ele>169.62</ele>
        <time>2014-10-11T07:44:25Z</time>
      </trkpt>
      <trkpt lat="48.78062" lon="2.08652">
        <ele>164.94</ele>
        <time>2014-10-11T07:44:32Z</time>
      </trkpt>
      <trkpt lat="48.78071" lon="2.08642">
        <ele>168.872</ele>
        <time>2014-10-11T07:44:37Z</time>
      </trkpt>
      <trkpt lat="48.78077" lon="2.08633">
        <ele>169.534</ele>
        <time>2014-10-11T07:44:43Z</time>
      </trkpt>
      <trkpt lat="48.78079" lon="2.0863">
        <ele>169.633</ele>
        <time>2014-10-11T07:44:45Z</time>
      </trkpt>
      <trkpt lat="48.78089" lon="2.08616">
        <ele>164.57</ele>
        <time>2014-10-11T07:44:53Z</time>
      </trkpt>
      <trkpt lat="48.78099" lon="2.08606">
        <ele>163.44</ele>
        <time>2014-10-11T07:44:59Z</time>
      </trkpt>
      <trkpt lat="48.7811" lon="2.08594">
        <ele>159.04</ele>
        <time>2014-10-11T07:45:06Z</time>
      </trkpt>
      <trkpt lat="48.78112" lon="2.08591">
        <ele>158.069</ele>
        <time>2014-10-11T07:45:07Z</time>
      </trkpt>
      <trkpt lat="48.78119" lon="2.0858">
        <ele>155.37</ele>
        <time>2014-10-11T07:45:12Z</time>
      </trkpt>
      <trkpt lat="48.78124" lon="2.08572">
        <ele>152.26</ele>
        <time>2014-10-11T07:45:16Z</time>
      </trkpt>
      <trkpt lat="48.7813" lon="2.08561">
        <ele>151.01</ele>
        <time>2014-10-11T07:45:22Z</time>
      </trkpt>
      <trkpt lat="48.78138" lon="2.0855">
        <ele>151.41</ele>
        <time>2014-10-11T07:45:29Z</time>
      </trkpt>
      <trkpt lat="48.7814" lon="2.08538">
        <ele>149.871</ele>
        <time>2014-10-11T07:45:34Z</time>
      </trkpt>
      <trkpt lat="48.78144" lon="2.08528">
        <ele>149.441</ele>
        <time>2014-10-11T07:45:39Z</time>
      </trkpt>
      <trkpt lat="48.78146" lon="2.08527">
        <ele>149.771</ele>
        <time>2014-10-11T07:45:40Z</time>
      </trkpt>
      <trkpt lat="48.78152" lon="2.08512">
        <ele>149.602</ele>
        <time>2014-10-11T07:45:47Z</time>
      </trkpt>
      <trkpt lat="48.7816" lon="2.08492">
        <ele>154.533</ele>
        <time>2014-10-11T07:45:56Z</time>
      </trkpt>
      <trkpt lat="48.7816" lon="2.0849">
        <ele>155.223</ele>
        <time>2014-10-11T07:45:57Z</time>
      </trkpt>
      <trkpt lat="48.78171" lon="2.08479">
        <ele>158.145</ele>
        <time>2014-10-11T07:46:07Z</time>
      </trkpt>
      <trkpt lat="48.7818" lon="2.08468">
        <ele>160.693</ele>
        <time>2014-10-11T07:46:15Z</time>
      </trkpt>
      <trkpt lat="48.78183" lon="2.08465">
        <ele>159.192</ele>
        <time>2014-10-11T07:46:17Z</time>
      </trkpt>
      <trkpt lat="48.78189" lon="2.08453">
        <ele>156.362</ele>
        <time>2014-10-11T07:46:24Z</time>
      </trkpt>
      <trkpt lat="48.78196" lon="2.0844">
        <ele>154.071</ele>
        <time>2014-10-11T07:46:31Z</time>
      </trkpt>
      <trkpt lat="48.78204" lon="2.08427">
        <ele>156.243</ele>
        <time>2014-10-11T07:46:38Z</time>
      </trkpt>
      <trkpt lat="48.78205" lon="2.08425">
        <ele>157.434</ele>
        <time>2014-10-11T07:46:39Z</time>
      </trkpt>
      <trkpt lat="48.78212" lon="2.08413">
        <ele>151.501</ele>
        <time>2014-10-11T07:46:46Z</time>
      </trkpt>
      <trkpt lat="48.78217" lon="2.08404">
        <ele>146.879</ele>
        <time>2014-10-11T07:46:51Z</time>
      </trkpt>
      <trkpt lat="48.78217" lon="2.08402">
        <ele>145.729</ele>
        <time>2014-10-11T07:46:52Z</time>
      </trkpt>
      <trkpt lat="48.78224" lon="2.08391">
        <ele>144.86</ele>
        <time>2014-10-11T07:46:58Z</time>
      </trkpt>
      <trkpt lat="48.78229" lon="2.08382">
        <ele>145.981</ele>
        <time>2014-10-11T07:47:04Z</time>
      </trkpt>
      <trkpt lat="48.7823" lon="2.0838">
        <ele>146.401</ele>
        <time>2014-10-11T07:47:05Z</time>
      </trkpt>
      <trkpt lat="48.78236" lon="2.08367">
        <ele>148.652</ele>
        <time>2014-10-11T07:47:12Z</time>
      </trkpt>
      <trkpt lat="48.78239" lon="2.08364">
        <ele>151.303</ele>
        <time>2014-10-11T07:47:14Z</time>
      </trkpt>
      <trkpt lat="48.78241" lon="2.08358">
        <ele>151.012</ele>
        <time>2014-10-11T07:47:18Z</time>
      </trkpt>
      <trkpt lat="48.78245" lon="2.08344">
        <ele>150.862</ele>
        <time>2014-10-11T07:47:24Z</time>
      </trkpt>
      <trkpt lat="48.78247" lon="2.08333">
        <ele>150.612</ele>
        <time>2014-10-11T07:47:29Z</time>
      </trkpt>
      <trkpt lat="48.78249" lon="2.08331">
        <ele>151.152</ele>
        <time>2014-10-11T07:47:30Z</time>
      </trkpt>
      <trkpt lat="48.78252" lon="2.08324">
        <ele>151.072</ele>
        <time>2014-10-11T07:47:34Z</time>
      </trkpt>
      <trkpt lat="48.78258" lon="2.08311">
        <ele>150.242</ele>
        <time>2014-10-11T07:47:40Z</time>
      </trkpt>
      <trkpt lat="48.78265" lon="2.08298">
        <ele>148.891</ele>
        <time>2014-10-11T07:47:45Z</time>
      </trkpt>
      <trkpt lat="48.78274" lon="2.08288">
        <ele>149.862</ele>
        <time>2014-10-11T07:47:51Z</time>
      </trkpt>
      <trkpt lat="48.78279" lon="2.0828">
        <ele>149.192</ele>
        <time>2014-10-11T07:47:55Z</time>
      </trkpt>
      <trkpt lat="48.78287" lon="2.08271">
        <ele>147.231</ele>
        <time>2014-10-11T07:48:01Z</time>
      </trkpt>
      <trkpt lat="48.78292" lon="2.08262">
        <ele>147.991</ele>
        <time>2014-10-11T07:48:06Z</time>
      </trkpt>
      <trkpt lat="48.78297" lon="2.08248">
        <ele>147.222</ele>
        <time>2014-10-11T07:48:12Z</time>
      </trkpt>
      <trkpt lat="48.783" lon="2.08239">
        <ele>144.911</ele>
        <time>2014-10-11T07:48:17Z</time>
      </trkpt>
      <trkpt lat="48.78307" lon="2.08226">
        <ele>149.293</ele>
        <time>2014-10-11T07:48:22Z</time>
      </trkpt>
      <trkpt lat="48.78314" lon="2.08215">
        <ele>155.484</ele>
        <time>2014-10-11T07:48:28Z</time>
      </trkpt>
      <trkpt lat="48.78315" lon="2.08214">
        <ele>156.421</ele>
        <time>2014-10-11T07:48:29Z</time>
      </trkpt>
      <trkpt lat="48.7832" lon="2.08207">
        <ele>161.097</ele>
        <time>2014-10-11T07:48:36Z</time>
      </trkpt>
      <trkpt lat="48.78323" lon="2.08195">
        <ele>161.779</ele>
        <time>2014-10-11T07:48:42Z</time>
      </trkpt>
      <trkpt lat="48.78324" lon="2.08194">
        <ele>161.133</ele>
        <time>2014-10-11T07:48:43Z</time>
      </trkpt>
      <trkpt lat="48.78331" lon="2.0818">
        <ele>156.983</ele>
        <time>2014-10-11T07:48:50Z</time>
      </trkpt>
      <trkpt lat="48.78333" lon="2.08175">
        <ele>157.071</ele>
        <time>2014-10-11T07:48:52Z</time>
      </trkpt>
      <trkpt lat="48.78347" lon="2.08171">
        <ele>156.441</ele>
        <time>2014-10-11T07:48:58Z</time>
      </trkpt>
      <trkpt lat="48.78354" lon="2.08172">
        <ele>153.64</ele>
        <time>2014-10-11T07:49:02Z</time>
      </trkpt>
      <trkpt lat="48.78362" lon="2.08176">
        <ele>146.898</ele>
        <time>2014-10-11T07:49:08Z</time>
      </trkpt>
      <trkpt lat="48.78367" lon="2.08177">
        <ele>143.518</ele>
        <time>2014-10-11T07:49:11Z</time>
      </trkpt>
      <trkpt lat="48.7838" lon="2.08176">
        <ele>145.541</ele>
        <time>2014-10-11T07:49:18Z</time>
      </trkpt>
      <trkpt lat="48.78386" lon="2.08173">
        <ele>143.971</ele>
        <time>2014-10-11T07:49:22Z</time>
      </trkpt>
      <trkpt lat="48.78389" lon="2.08169">
        <ele>141.41</ele>
        <time>2014-10-11T07:49:25Z</time>
      </trkpt>
      <trkpt lat="48.78394" lon="2.08164">
        <ele>142.381</ele>
        <time>2014-10-11T07:49:30Z</time>
      </trkpt>
      <trkpt lat="48.78405" lon="2.08159">
        <ele>146.023</ele>
        <time>2014-10-11T07:49:35Z</time>
      </trkpt>
      <trkpt lat="48.78409" lon="2.08151">
        <ele>146.103</ele>
        <time>2014-10-11T07:49:39Z</time>
      </trkpt>
      <trkpt lat="48.78412" lon="2.0814">
        <ele>149.293</ele>
        <time>2014-10-11T07:49:46Z</time>
      </trkpt>
      <trkpt lat="48.78411" lon="2.08128">
        <ele>153.634</ele>
        <time>2014-10-11T07:49:52Z</time>
      </trkpt>
      <trkpt lat="48.78408" lon="2.08118">
        <ele>153.303</ele>
        <time>2014-10-11T07:49:57Z</time>
      </trkpt>
      <trkpt lat="48.78405" lon="2.08109">
        <ele>152.872</ele>
        <time>2014-10-11T07:50:02Z</time>
      </trkpt>
      <trkpt lat="48.78398" lon="2.08097">
        <ele>150.41</ele>
        <time>2014-10-11T07:50:09Z</time>
      </trkpt>
      <trkpt lat="48.78392" lon="2.0809">
        <ele>149.469</ele>
        <time>2014-10-11T07:50:13Z</time>
      </trkpt>
      <trkpt lat="48.78387" lon="2.08079">
        <ele>147.52</ele>
        <time>2014-10-11T07:50:19Z</time>
      </trkpt>
      <trkpt lat="48.78384" lon="2.08069">
        <ele>145.319</ele>
        <time>2014-10-11T07:50:25Z</time>
      </trkpt>
      <trkpt lat="48.78381" lon="2.08063">
        <ele>146.04</ele>
        <time>2014-10-11T07:50:28Z</time>
      </trkpt>
      <trkpt lat="48.78375" lon="2.08049">
        <ele>147.762</ele>
        <time>2014-10-11T07:50:34Z</time>
      </trkpt>
      <trkpt lat="48.78372" lon="2.08042">
        <ele>147.431</ele>
        <time>2014-10-11T07:50:37Z</time>
      </trkpt>
      <trkpt lat="48.78369" lon="2.08025">
        <ele>146.771</ele>
        <time>2014-10-11T07:50:44Z</time>
      </trkpt>
      <trkpt lat="48.78365" lon="2.08015">
        <ele>149.162</ele>
        <time>2014-10-11T07:50:48Z</time>
      </trkpt>
      <trkpt lat="48.78364" lon="2.08006">
        <ele>151.463</ele>
        <time>2014-10-11T07:50:52Z</time>
      </trkpt>
      <trkpt lat="48.78363" lon="2.07999">
        <ele>151.622</ele>
        <time>2014-10-11T07:50:55Z</time>
      </trkpt>
      <trkpt lat="48.7836" lon="2.0798">
        <ele>158.003</ele>
        <time>2014-10-11T07:51:03Z</time>
      </trkpt>
      <trkpt lat="48.78357" lon="2.07963">
        <ele>157.181</ele>
        <time>2014-10-11T07:51:11Z</time>
      </trkpt>
      <trkpt lat="48.78355" lon="2.07956">
        <ele>156.951</ele>
        <time>2014-10-11T07:51:14Z</time>
      </trkpt>
      <trkpt lat="48.78356" lon="2.07938">
        <ele>154.48</ele>
        <time>2014-10-11T07:51:20Z</time>
      </trkpt>
      <trkpt lat="48.78351" lon="2.07927">
        <ele>149.279</ele>
        <time>2014-10-11T07:51:25Z</time>
      </trkpt>
      <trkpt lat="48.78346" lon="2.0791">
        <ele>149.379</ele>
        <time>2014-10-11T07:51:31Z</time>
      </trkpt>
      <trkpt lat="48.78342" lon="2.07897">
        <ele>152.501</ele>
        <time>2014-10-11T07:51:36Z</time>
      </trkpt>
      <trkpt lat="48.78341" lon="2.07892">
        <ele>154.522</ele>
        <time>2014-10-11T07:51:38Z</time>
      </trkpt>
      <trkpt lat="48.78334" lon="2.07882">
        <ele>151.5</ele>
        <time>2014-10-11T07:51:44Z</time>
      </trkpt>
      <trkpt lat="48.78331" lon="2.07878">
        <ele>146.928</ele>
        <time>2014-10-11T07:51:47Z</time>
      </trkpt>
      <trkpt lat="48.78329" lon="2.07872">
        <ele>144.298</ele>
        <time>2014-10-11T07:51:51Z</time>
      </trkpt>
      <trkpt lat="48.78322" lon="2.07861">
        <ele>139.558</ele>
        <time>2014-10-11T07:51:58Z</time>
      </trkpt>
      <trkpt lat="48.78315" lon="2.07849">
        <ele>140.999</ele>
        <time>2014-10-11T07:52:05Z</time>
      </trkpt>
      <trkpt lat="48.78309" lon="2.07839">
        <ele>135.127</ele>
        <time>2014-10-11T07:52:12Z</time>
      </trkpt>
      <trkpt lat="48.78306" lon="2.07831">
        <ele>133.217</ele>
        <time>2014-10-11T07:52:15Z</time>
      </trkpt>
      <trkpt lat="48.78303" lon="2.07824">
        <ele>135.028</ele>
        <time>2014-10-11T07:52:19Z</time>
      </trkpt>
      <trkpt lat="48.78298" lon="2.07812">
        <ele>133.839</ele>
        <time>2014-10-11T07:52:25Z</time>
      </trkpt>
      <trkpt lat="48.78297" lon="2.0781">
        <ele>133.699</ele>
        <time>2014-10-11T07:52:26Z</time>
      </trkpt>
      <trkpt lat="48.78296" lon="2.07806">
        <ele>131.689</ele>
        <time>2014-10-11T07:52:28Z</time>
      </trkpt>
      <trkpt lat="48.7829" lon="2.07793">
        <ele>129.458</ele>
        <time>2014-10-11T07:52:34Z</time>
      </trkpt>
      <trkpt lat="48.78284" lon="2.07772">
        <ele>136.521</ele>
        <time>2014-10-11T07:52:40Z</time>
      </trkpt>
      <trkpt lat="48.78276" lon="2.07759">
        <ele>144.102</ele>
        <time>2014-10-11T07:52:45Z</time>
      </trkpt>
      <trkpt lat="48.78272" lon="2.07749">
        <ele>149.352</ele>
        <time>2014-10-11T07:52:51Z</time>
      </trkpt>
      <trkpt lat="48.7826" lon="2.07741">
        <ele>146.741</ele>
        <time>2014-10-11T07:52:57Z</time>
      </trkpt>
      <trkpt lat="48.78251" lon="2.07735">
        <ele>142.059</ele>
        <time>2014-10-11T07:53:03Z</time>
      </trkpt>
      <trkpt lat="48.78245" lon="2.07729">
        <ele>138.109</ele>
        <time>2014-10-11T07:53:09Z</time>
      </trkpt>
      <trkpt lat="48.78242" lon="2.07727">
        <ele>136.548</ele>
        <time>2014-10-11T07:53:11Z</time>
      </trkpt>
      <trkpt lat="48.78233" lon="2.07715">
        <ele>135.739</ele>
        <time>2014-10-11T07:53:18Z</time>
      </trkpt>
      <trkpt lat="48.78227" lon="2.07711">
        <ele>128.798</ele>
        <time>2014-10-11T07:53:23Z</time>
      </trkpt>
      <trkpt lat="48.78224" lon="2.07705">
        <ele>127.678</ele>
        <time>2014-10-11T07:53:27Z</time>
      </trkpt>
      <trkpt lat="48.78218" lon="2.07699">
        <ele>122.517</ele>
        <time>2014-10-11T07:53:33Z</time>
      </trkpt>
      <trkpt lat="48.78209" lon="2.07684">
        <ele>123.828</ele>
        <time>2014-10-11T07:53:40Z</time>
      </trkpt>
      <trkpt lat="48.78203" lon="2.07672">
        <ele>132.211</ele>
        <time>2014-10-11T07:53:46Z</time>
      </trkpt>
      <trkpt lat="48.78198" lon="2.07664">
        <ele>137.232</ele>
        <time>2014-10-11T07:53:50Z</time>
      </trkpt>
      <trkpt lat="48.78193" lon="2.07655">
        <ele>140.282</ele>
        <time>2014-10-11T07:53:56Z</time>
      </trkpt>
      <trkpt lat="48.78183" lon="2.07644">
        <ele>144.212</ele>
        <time>2014-10-11T07:54:02Z</time>
      </trkpt>
      <trkpt lat="48.78174" lon="2.07632">
        <ele>147.102</ele>
        <time>2014-10-11T07:54:07Z</time>
      </trkpt>
      <trkpt lat="48.78168" lon="2.07619">
        <ele>147.35</ele>
        <time>2014-10-11T07:54:13Z</time>
      </trkpt>
      <trkpt lat="48.78162" lon="2.07614">
        <ele>140.697</ele>
        <time>2014-10-11T07:54:18Z</time>
      </trkpt>
      <trkpt lat="48.78157" lon="2.07608">
        <ele>139.398</ele>
        <time>2014-10-11T07:54:22Z</time>
      </trkpt>
      <trkpt lat="48.78149" lon="2.07596">
        <ele>142.89</ele>
        <time>2014-10-11T07:54:28Z</time>
      </trkpt>
      <trkpt lat="48.78143" lon="2.07583">
        <ele>143.7</ele>
        <time>2014-10-11T07:54:34Z</time>
      </trkpt>
      <trkpt lat="48.7814" lon="2.07579">
        <ele>144.011</ele>
        <time>2014-10-11T07:54:36Z</time>
      </trkpt>
      <trkpt lat="48.78137" lon="2.07569">
        <ele>141.31</ele>
        <time>2014-10-11T07:54:41Z</time>
      </trkpt>
      <trkpt lat="48.78137" lon="2.07562">
        <ele>143.641</ele>
        <time>2014-10-11T07:54:44Z</time>
      </trkpt>
      <trkpt lat="48.78134" lon="2.07545">
        <ele>143.831</ele>
        <time>2014-10-11T07:54:51Z</time>
      </trkpt>
      <trkpt lat="48.7813" lon="2.0753">
        <ele>144.661</ele>
        <time>2014-10-11T07:54:57Z</time>
      </trkpt>
      <trkpt lat="48.7813" lon="2.07517">
        <ele>146.491</ele>
        <time>2014-10-11T07:55:03Z</time>
      </trkpt>
      <trkpt lat="48.78128" lon="2.07514">
        <ele>144.34</ele>
        <time>2014-10-11T07:55:05Z</time>
      </trkpt>
      <trkpt lat="48.78126" lon="2.07511">
        <ele>145.491</ele>
        <time>2014-10-11T07:55:07Z</time>
      </trkpt>
      <trkpt lat="48.78123" lon="2.07502">
        <ele>143.97</ele>
        <time>2014-10-11T07:55:12Z</time>
      </trkpt>
      <trkpt lat="48.7812" lon="2.07487">
        <ele>141.259</ele>
        <time>2014-10-11T07:55:18Z</time>
      </trkpt>
      <trkpt lat="48.78116" lon="2.07469">
        <ele>147.251</ele>
        <time>2014-10-11T07:55:24Z</time>
      </trkpt>
      <trkpt lat="48.78117" lon="2.07455">
        <ele>154.102</ele>
        <time>2014-10-11T07:55:29Z</time>
      </trkpt>
      <trkpt lat="48.78116" lon="2.07442">
        <ele>152.831</ele>
        <time>2014-10-11T07:55:34Z</time>
      </trkpt>
      <trkpt lat="48.78115" lon="2.07437">
        <ele>154.642</ele>
        <time>2014-10-11T07:55:36Z</time>
      </trkpt>
      <trkpt lat="48.78115" lon="2.07429">
        <ele>151.2</ele>
        <time>2014-10-11T07:55:41Z</time>
      </trkpt>
      <trkpt lat="48.78112" lon="2.07413">
        <ele>155.222</ele>
        <time>2014-10-11T07:55:47Z</time>
      </trkpt>
      <trkpt lat="48.7811" lon="2.07403">
        <ele>158.223</ele>
        <time>2014-10-11T07:55:51Z</time>
      </trkpt>
      <trkpt lat="48.78106" lon="2.07385">
        <ele>164.253</ele>
        <time>2014-10-11T07:55:57Z</time>
      </trkpt>
      <trkpt lat="48.78107" lon="2.07368">
        <ele>158.671</ele>
        <time>2014-10-11T07:56:02Z</time>
      </trkpt>
      <trkpt lat="48.78108" lon="2.0736">
        <ele>156.86</ele>
        <time>2014-10-11T07:56:05Z</time>
      </trkpt>
      <trkpt lat="48.78107" lon="2.07346">
        <ele>154.85</ele>
        <time>2014-10-11T07:56:10Z</time>
      </trkpt>
      <trkpt lat="48.78108" lon="2.07332">
        <ele>151.99</ele>
        <time>2014-10-11T07:56:16Z</time>
      </trkpt>
      <trkpt lat="48.78109" lon="2.07324">
        <ele>147.238</ele>
        <time>2014-10-11T07:56:20Z</time>
      </trkpt>
      <trkpt lat="48.7811" lon="2.07317">
        <ele>145.249</ele>
        <time>2014-10-11T07:56:23Z</time>
      </trkpt>
      <trkpt lat="48.78112" lon="2.073">
        <ele>145.24</ele>
        <time>2014-10-11T07:56:30Z</time>
      </trkpt>
      <trkpt lat="48.78113" lon="2.07288">
        <ele>142.11</ele>
        <time>2014-10-11T07:56:36Z</time>
      </trkpt>
      <trkpt lat="48.78113" lon="2.07271">
        <ele>141.44</ele>
        <time>2014-10-11T07:56:42Z</time>
      </trkpt>
      <trkpt lat="48.78113" lon="2.07256">
        <ele>141.62</ele>
        <time>2014-10-11T07:56:48Z</time>
      </trkpt>
      <trkpt lat="48.78113" lon="2.07243">
        <ele>142.13</ele>
        <time>2014-10-11T07:56:53Z</time>
      </trkpt>
      <trkpt lat="48.78112" lon="2.07227">
        <ele>140.48</ele>
        <time>2014-10-11T07:56:59Z</time>
      </trkpt>
      <trkpt lat="48.78113" lon="2.07207">
        <ele>143.271</ele>
        <time>2014-10-11T07:57:05Z</time>
      </trkpt>
      <trkpt lat="48.78115" lon="2.0719">
        <ele>144.162</ele>
        <time>2014-10-11T07:57:12Z</time>
      </trkpt>
      <trkpt lat="48.78116" lon="2.07175">
        <ele>145.682</ele>
        <time>2014-10-11T07:57:18Z</time>
      </trkpt>
      <trkpt lat="48.78116" lon="2.07167">
        <ele>146.602</ele>
        <time>2014-10-11T07:57:21Z</time>
      </trkpt>
      <trkpt lat="48.78117" lon="2.07156">
        <ele>147.012</ele>
        <time>2014-10-11T07:57:26Z</time>
      </trkpt>
      <trkpt lat="48.7812" lon="2.07145">
        <ele>146.481</ele>
        <time>2014-10-11T07:57:31Z</time>
      </trkpt>
      <trkpt lat="48.78121" lon="2.07141">
        <ele>146.661</ele>
        <time>2014-10-11T07:57:33Z</time>
      </trkpt>
      <trkpt lat="48.78122" lon="2.07132">
        <ele>145.67</ele>
        <time>2014-10-11T07:57:37Z</time>
      </trkpt>
      <trkpt lat="48.78124" lon="2.07121">
        <ele>141.457</ele>
        <time>2014-10-11T07:57:41Z</time>
      </trkpt>
      <trkpt lat="48.78124" lon="2.07106">
        <ele>139.288</ele>
        <time>2014-10-11T07:57:46Z</time>
      </trkpt>
      <trkpt lat="48.78124" lon="2.07104">
        <ele>138.338</ele>
        <time>2014-10-11T07:57:47Z</time>
      </trkpt>
      <trkpt lat="48.78125" lon="2.07086">
        <ele>137.478</ele>
        <time>2014-10-11T07:57:54Z</time>
      </trkpt>
      <trkpt lat="48.78123" lon="2.07072">
        <ele>141.58</ele>
        <time>2014-10-11T07:57:59Z</time>
      </trkpt>
      <trkpt lat="48.78123" lon="2.07069">
        <ele>140.93</ele>
        <time>2014-10-11T07:58:00Z</time>
      </trkpt>
      <trkpt lat="48.78122" lon="2.07053">
        <ele>141.7</ele>
        <time>2014-10-11T07:58:06Z</time>
      </trkpt>
      <trkpt lat="48.78121" lon="2.07049">
        <ele>142.04</ele>
        <time>2014-10-11T07:58:08Z</time>
      </trkpt>
      <trkpt lat="48.78119" lon="2.07033">
        <ele>146.521</ele>
        <time>2014-10-11T07:58:15Z</time>
      </trkpt>
      <trkpt lat="48.78117" lon="2.07023">
        <ele>148.151</ele>
        <time>2014-10-11T07:58:20Z</time>
      </trkpt>
      <trkpt lat="48.7811" lon="2.07012">
        <ele>153.503</ele>
        <time>2014-10-11T07:58:25Z</time>
      </trkpt>
      <trkpt lat="48.78099" lon="2.06997">
        <ele>157.002</ele>
        <time>2014-10-11T07:58:33Z</time>
      </trkpt>
      <trkpt lat="48.78091" lon="2.06991">
        <ele>161.263</ele>
        <time>2014-10-11T07:58:38Z</time>
      </trkpt>
      <trkpt lat="48.78085" lon="2.06982">
        <ele>159.441</ele>
        <time>2014-10-11T07:58:44Z</time>
      </trkpt>
      <trkpt lat="48.7808" lon="2.06973">
        <ele>159.45</ele>
        <time>2014-10-11T07:58:49Z</time>
      </trkpt>
      <trkpt lat="48.78072" lon="2.06964">
        <ele>158.769</ele>
        <time>2014-10-11T07:58:55Z</time>
      </trkpt>
      <trkpt lat="48.78066" lon="2.06952">
        <ele>159.54</ele>
        <time>2014-10-11T07:59:01Z</time>
      </trkpt>
      <trkpt lat="48.78056" lon="2.06941">
        <ele>155.367</ele>
        <time>2014-10-11T07:59:07Z</time>
      </trkpt>
      <trkpt lat="48.78049" lon="2.06933">
        <ele>152.787</ele>
        <time>2014-10-11T07:59:12Z</time>
      </trkpt>
      <trkpt lat="48.78043" lon="2.06925">
        <ele>151.518</ele>
        <time>2014-10-11T07:59:16Z</time>
      </trkpt>
      <trkpt lat="48.78039" lon="2.06923">
        <ele>154.689</ele>
        <time>2014-10-11T07:59:19Z</time>
      </trkpt>
      <trkpt lat="48.78037" lon="2.06919">
        <ele>156.41</ele>
        <time>2014-10-11T07:59:22Z</time>
      </trkpt>
      <trkpt lat="48.78042" lon="2.06898">
        <ele>154.489</ele>
        <time>2014-10-11T07:59:29Z</time>
      </trkpt>
      <trkpt lat="48.78049" lon="2.06883">
        <ele>142.876</ele>
        <time>2014-10-11T07:59:34Z</time>
      </trkpt>
      <trkpt lat="48.7805" lon="2.0688">
        <ele>141.065</ele>
        <time>2014-10-11T07:59:35Z</time>
      </trkpt>
      <trkpt lat="48.78055" lon="2.06871">
        <ele>136.065</ele>
        <time>2014-10-11T07:59:39Z</time>
      </trkpt>
      <trkpt lat="48.78062" lon="2.06862">
        <ele>133.437</ele>
        <time>2014-10-11T07:59:45Z</time>
      </trkpt>
      <trkpt lat="48.78066" lon="2.06861">
        <ele>134.469</ele>
        <time>2014-10-11T07:59:47Z</time>
      </trkpt>
      <trkpt lat="48.78078" lon="2.06868">
        <ele>143.202</ele>
        <time>2014-10-11T07:59:53Z</time>
      </trkpt>
      <trkpt lat="48.78089" lon="2.06877">
        <ele>150.924</ele>
        <time>2014-10-11T07:59:59Z</time>
      </trkpt>
      <trkpt lat="48.78094" lon="2.06883">
        <ele>153.303</ele>
        <time>2014-10-11T08:00:03Z</time>
      </trkpt>
      <trkpt lat="48.78101" lon="2.06891">
        <ele>159.333</ele>
        <time>2014-10-11T08:00:10Z</time>
      </trkpt>
      <trkpt lat="48.78104" lon="2.06896">
        <ele>161.434</ele>
        <time>2014-10-11T08:00:13Z</time>
      </trkpt>
      <trkpt lat="48.78112" lon="2.06908">
        <ele>164.383</ele>
        <time>2014-10-11T08:00:20Z</time>
      </trkpt>
      <trkpt lat="48.78115" lon="2.06912">
        <ele>163.532</ele>
        <time>2014-10-11T08:00:22Z</time>
      </trkpt>
      <trkpt lat="48.78123" lon="2.06924">
        <ele>161.821</ele>
        <time>2014-10-11T08:00:28Z</time>
      </trkpt>
      <trkpt lat="48.7813" lon="2.06936">
        <ele>157.53</ele>
        <time>2014-10-11T08:00:34Z</time>
      </trkpt>
      <trkpt lat="48.78131" lon="2.06937">
        <ele>156.8</ele>
        <time>2014-10-11T08:00:35Z</time>
      </trkpt>
      <trkpt lat="48.78137" lon="2.06945">
        <ele>151.828</ele>
        <time>2014-10-11T08:00:41Z</time>
      </trkpt>
      <trkpt lat="48.78143" lon="2.06958">
        <ele>151.069</ele>
        <time>2014-10-11T08:00:47Z</time>
      </trkpt>
      <trkpt lat="48.78147" lon="2.06968">
        <ele>159.272</ele>
        <time>2014-10-11T08:00:52Z</time>
      </trkpt>
      <trkpt lat="48.78151" lon="2.06978">
        <ele>162.502</ele>
        <time>2014-10-11T08:00:57Z</time>
      </trkpt>
      <trkpt lat="48.78154" lon="2.06988">
        <ele>165.064</ele>
        <time>2014-10-11T08:01:03Z</time>
      </trkpt>
      <trkpt lat="48.78154" lon="2.06988">
        <ele>166.096</ele>
        <time>2014-10-11T08:01:04Z</time>
      </trkpt>
      <trkpt lat="48.78148" lon="2.0699">
        <ele>163.311</ele>
        <time>2014-10-11T08:01:36Z</time>
      </trkpt>
      <trkpt lat="48.78156" lon="2.06996">
        <ele>175.897</ele>
        <time>2014-10-11T08:02:35Z</time>
      </trkpt>
      <trkpt lat="48.7816" lon="2.06998">
        <ele>154.601</ele>
        <time>2014-10-11T08:03:07Z</time>
      </trkpt>
      <trkpt lat="48.78165" lon="2.07013">
        <ele>150.201</ele>
        <time>2014-10-11T08:03:16Z</time>
      </trkpt>
      <trkpt lat="48.78166" lon="2.07016">
        <ele>148.348</ele>
        <time>2014-10-11T08:03:19Z</time>
      </trkpt>
      <trkpt lat="48.78168" lon="2.07027">
        <ele>144.15</ele>
        <time>2014-10-11T08:03:34Z</time>
      </trkpt>
      <trkpt lat="48.78171" lon="2.07033">
        <ele>142.57</ele>
        <time>2014-10-11T08:03:40Z</time>
      </trkpt>
      <trkpt lat="48.78178" lon="2.07043">
        <ele>146.472</ele>
        <time>2014-10-11T08:03:46Z</time>
      </trkpt>
      <trkpt lat="48.78181" lon="2.07056">
        <ele>146.781</ele>
        <time>2014-10-11T08:03:52Z</time>
      </trkpt>
      <trkpt lat="48.78182" lon="2.07057">
        <ele>146.342</ele>
        <time>2014-10-11T08:03:53Z</time>
      </trkpt>
      <trkpt lat="48.78183" lon="2.07072">
        <ele>146.492</ele>
        <time>2014-10-11T08:03:58Z</time>
      </trkpt>
      <trkpt lat="48.78184" lon="2.0708">
        <ele>147.961</ele>
        <time>2014-10-11T08:04:02Z</time>
      </trkpt>
      <trkpt lat="48.78185" lon="2.07091">
        <ele>143.29</ele>
        <time>2014-10-11T08:04:07Z</time>
      </trkpt>
      <trkpt lat="48.78189" lon="2.07105">
        <ele>141.19</ele>
        <time>2014-10-11T08:04:13Z</time>
      </trkpt>
      <trkpt lat="48.78188" lon="2.07122">
        <ele>142.261</ele>
        <time>2014-10-11T08:04:19Z</time>
      </trkpt>
      <trkpt lat="48.78188" lon="2.07123">
        <ele>141.35</ele>
        <time>2014-10-11T08:04:20Z</time>
      </trkpt>
      <trkpt lat="48.78189" lon="2.07139">
        <ele>139.14</ele>
        <time>2014-10-11T08:04:26Z</time>
      </trkpt>
      <trkpt lat="48.78187" lon="2.0715">
        <ele>140.1</ele>
        <time>2014-10-11T08:04:30Z</time>
      </trkpt>
      <trkpt lat="48.78186" lon="2.07164">
        <ele>136.609</ele>
        <time>2014-10-11T08:04:36Z</time>
      </trkpt>
      <trkpt lat="48.78185" lon="2.07169">
        <ele>135.679</ele>
        <time>2014-10-11T08:04:38Z</time>
      </trkpt>
      <trkpt lat="48.78185" lon="2.07191">
        <ele>143.152</ele>
        <time>2014-10-11T08:04:45Z</time>
      </trkpt>
      <trkpt lat="48.78187" lon="2.07197">
        <ele>144.153</ele>
        <time>2014-10-11T08:04:47Z</time>
      </trkpt>
      <trkpt lat="48.78187" lon="2.07214">
        <ele>140.58</ele>
        <time>2014-10-11T08:04:54Z</time>
      </trkpt>
      <trkpt lat="48.78184" lon="2.07221">
        <ele>139.74</ele>
        <time>2014-10-11T08:04:57Z</time>
      </trkpt>
      <trkpt lat="48.78187" lon="2.07234">
        <ele>145.833</ele>
        <time>2014-10-11T08:05:03Z</time>
      </trkpt>
      <trkpt lat="48.78188" lon="2.07251">
        <ele>149.583</ele>
        <time>2014-10-11T08:05:09Z</time>
      </trkpt>
      <trkpt lat="48.78186" lon="2.07267">
        <ele>153.203</ele>
        <time>2014-10-11T08:05:15Z</time>
      </trkpt>
      <trkpt lat="48.78184" lon="2.07274">
        <ele>153.673</ele>
        <time>2014-10-11T08:05:17Z</time>
      </trkpt>
      <trkpt lat="48.78186" lon="2.0728">
        <ele>153.022</ele>
        <time>2014-10-11T08:05:21Z</time>
      </trkpt>
      <trkpt lat="48.78186" lon="2.07291">
        <ele>152.561</ele>
        <time>2014-10-11T08:05:25Z</time>
      </trkpt>
      <trkpt lat="48.78188" lon="2.07304">
        <ele>151.961</ele>
        <time>2014-10-11T08:05:29Z</time>
      </trkpt>
      <trkpt lat="48.7819" lon="2.07312">
        <ele>153.072</ele>
        <time>2014-10-11T08:05:32Z</time>
      </trkpt>
      <trkpt lat="48.7819" lon="2.07321">
        <ele>147.02</ele>
        <time>2014-10-11T08:05:36Z</time>
      </trkpt>
      <trkpt lat="48.7819" lon="2.07335">
        <ele>150.672</ele>
        <time>2014-10-11T08:05:42Z</time>
      </trkpt>
      <trkpt lat="48.78192" lon="2.07343">
        <ele>150.752</ele>
        <time>2014-10-11T08:05:46Z</time>
      </trkpt>
      <trkpt lat="48.78194" lon="2.07358">
        <ele>144.729</ele>
        <time>2014-10-11T08:05:52Z</time>
      </trkpt>
      <trkpt lat="48.78195" lon="2.07365">
        <ele>142.739</ele>
        <time>2014-10-11T08:05:55Z</time>
      </trkpt>
      <trkpt lat="48.78203" lon="2.07376">
        <ele>139.869</ele>
        <time>2014-10-11T08:06:00Z</time>
      </trkpt>
      <trkpt lat="48.78213" lon="2.07383">
        <ele>139.099</ele>
        <time>2014-10-11T08:06:06Z</time>
      </trkpt>
      <trkpt lat="48.78215" lon="2.07384">
        <ele>138.269</ele>
        <time>2014-10-11T08:06:07Z</time>
      </trkpt>
      <trkpt lat="48.7822" lon="2.074">
        <ele>137.699</ele>
        <time>2014-10-11T08:06:14Z</time>
      </trkpt>
      <trkpt lat="48.78222" lon="2.0741">
        <ele>140.87</ele>
        <time>2014-10-11T08:06:18Z</time>
      </trkpt>
      <trkpt lat="48.78221" lon="2.07419">
        <ele>139.889</ele>
        <time>2014-10-11T08:06:21Z</time>
      </trkpt>
      <trkpt lat="48.78214" lon="2.07437">
        <ele>140.208</ele>
        <time>2014-10-11T08:06:28Z</time>
      </trkpt>
      <trkpt lat="48.78212" lon="2.07443">
        <ele>141.069</ele>
        <time>2014-10-11T08:06:31Z</time>
      </trkpt>
      <trkpt lat="48.78212" lon="2.07458">
        <ele>137.518</ele>
        <time>2014-10-11T08:06:37Z</time>
      </trkpt>
      <trkpt lat="48.78212" lon="2.07475">
        <ele>132.398</ele>
        <time>2014-10-11T08:06:43Z</time>
      </trkpt>
      <trkpt lat="48.78216" lon="2.07487">
        <ele>132.909</ele>
        <time>2014-10-11T08:06:47Z</time>
      </trkpt>
      <trkpt lat="48.78218" lon="2.07495">
        <ele>134.469</ele>
        <time>2014-10-11T08:06:50Z</time>
      </trkpt>
      <trkpt lat="48.78218" lon="2.07507">
        <ele>135.609</ele>
        <time>2014-10-11T08:06:54Z</time>
      </trkpt>
      <trkpt lat="48.78221" lon="2.07519">
        <ele>135.6</ele>
        <time>2014-10-11T08:07:00Z</time>
      </trkpt>
      <trkpt lat="48.78223" lon="2.07528">
        <ele>136.971</ele>
        <time>2014-10-11T08:07:05Z</time>
      </trkpt>
      <trkpt lat="48.78225" lon="2.07531">
        <ele>136.621</ele>
        <time>2014-10-11T08:07:07Z</time>
      </trkpt>
      <trkpt lat="48.78228" lon="2.07537">
        <ele>137.39</ele>
        <time>2014-10-11T08:07:11Z</time>
      </trkpt>
      <trkpt lat="48.78238" lon="2.07549">
        <ele>136.9</ele>
        <time>2014-10-11T08:07:18Z</time>
      </trkpt>
      <trkpt lat="48.78247" lon="2.0756">
        <ele>138.151</ele>
        <time>2014-10-11T08:07:24Z</time>
      </trkpt>
      <trkpt lat="48.78256" lon="2.07571">
        <ele>141.852</ele>
        <time>2014-10-11T08:07:29Z</time>
      </trkpt>
      <trkpt lat="48.78261" lon="2.07579">
        <ele>141.521</ele>
        <time>2014-10-11T08:07:33Z</time>
      </trkpt>
      <trkpt lat="48.78264" lon="2.07583">
        <ele>141.501</ele>
        <time>2014-10-11T08:07:36Z</time>
      </trkpt>
      <trkpt lat="48.78275" lon="2.07591">
        <ele>140.632</ele>
        <time>2014-10-11T08:07:42Z</time>
      </trkpt>
      <trkpt lat="48.78285" lon="2.076">
        <ele>140.451</ele>
        <time>2014-10-11T08:07:48Z</time>
      </trkpt>
      <trkpt lat="48.78291" lon="2.07604">
        <ele>141.151</ele>
        <time>2014-10-11T08:07:53Z</time>
      </trkpt>
      <trkpt lat="48.78301" lon="2.07606">
        <ele>141.082</ele>
        <time>2014-10-11T08:07:58Z</time>
      </trkpt>
      <trkpt lat="48.78309" lon="2.07612">
        <ele>143.563</ele>
        <time>2014-10-11T08:08:02Z</time>
      </trkpt>
      <trkpt lat="48.78318" lon="2.0762">
        <ele>144.603</ele>
        <time>2014-10-11T08:08:08Z</time>
      </trkpt>
      <trkpt lat="48.7832" lon="2.07622">
        <ele>145.013</ele>
        <time>2014-10-11T08:08:09Z</time>
      </trkpt>
      <trkpt lat="48.78327" lon="2.07627">
        <ele>153.534</ele>
        <time>2014-10-11T08:08:15Z</time>
      </trkpt>
      <trkpt lat="48.78331" lon="2.07633">
        <ele>152.112</ele>
        <time>2014-10-11T08:08:19Z</time>
      </trkpt>
      <trkpt lat="48.78337" lon="2.07645">
        <ele>147.871</ele>
        <time>2014-10-11T08:08:25Z</time>
      </trkpt>
      <trkpt lat="48.78344" lon="2.07653">
        <ele>147.4</ele>
        <time>2014-10-11T08:08:30Z</time>
      </trkpt>
      <trkpt lat="48.78349" lon="2.07662">
        <ele>146.3</ele>
        <time>2014-10-11T08:08:34Z</time>
      </trkpt>
      <trkpt lat="48.7836" lon="2.0767">
        <ele>144.719</ele>
        <time>2014-10-11T08:08:41Z</time>
      </trkpt>
      <trkpt lat="48.78366" lon="2.07678">
        <ele>141.149</ele>
        <time>2014-10-11T08:08:47Z</time>
      </trkpt>
      <trkpt lat="48.78372" lon="2.07685">
        <ele>139.809</ele>
        <time>2014-10-11T08:08:53Z</time>
      </trkpt>
      <trkpt lat="48.78382" lon="2.07692">
        <ele>143.041</ele>
        <time>2014-10-11T08:09:00Z</time>
      </trkpt>
      <trkpt lat="48.78406" lon="2.07734">
        <ele>146.589</ele>
        <time>2014-10-11T08:09:21Z</time>
      </trkpt>
      <trkpt lat="48.7841" lon="2.0775">
        <ele>147.881</ele>
        <time>2014-10-11T08:09:27Z</time>
      </trkpt>
      <trkpt lat="48.78412" lon="2.07755">
        <ele>147.279</ele>
        <time>2014-10-11T08:09:29Z</time>
      </trkpt>
      <trkpt lat="48.78416" lon="2.07768">
        <ele>148.075</ele>
        <time>2014-10-11T08:09:35Z</time>
      </trkpt>
      <trkpt lat="48.78419" lon="2.07781">
        <ele>150.897</ele>
        <time>2014-10-11T08:09:40Z</time>
      </trkpt>
      <trkpt lat="48.78426" lon="2.07794">
        <ele>148.329</ele>
        <time>2014-10-11T08:09:47Z</time>
      </trkpt>
      <trkpt lat="48.78427" lon="2.07799">
        <ele>147.212</ele>
        <time>2014-10-11T08:09:49Z</time>
      </trkpt>
      <trkpt lat="48.78431" lon="2.07814">
        <ele>145.222</ele>
        <time>2014-10-11T08:09:56Z</time>
      </trkpt>
      <trkpt lat="48.78432" lon="2.07822">
        <ele>144.572</ele>
        <time>2014-10-11T08:09:59Z</time>
      </trkpt>
      <trkpt lat="48.78436" lon="2.07834">
        <ele>142.217</ele>
        <time>2014-10-11T08:10:05Z</time>
      </trkpt>
      <trkpt lat="48.78438" lon="2.07837">
        <ele>140.743</ele>
        <time>2014-10-11T08:10:07Z</time>
      </trkpt>
      <trkpt lat="48.78444" lon="2.07846">
        <ele>142.662</ele>
        <time>2014-10-11T08:10:12Z</time>
      </trkpt>
      <trkpt lat="48.78447" lon="2.07852">
        <ele>142.741</ele>
        <time>2014-10-11T08:10:15Z</time>
      </trkpt>
      <trkpt lat="48.78453" lon="2.07866">
        <ele>143.168</ele>
        <time>2014-10-11T08:10:21Z</time>
      </trkpt>
      <trkpt lat="48.78455" lon="2.07871">
        <ele>142.834</ele>
        <time>2014-10-11T08:10:23Z</time>
      </trkpt>
      <trkpt lat="48.78458" lon="2.07881">
        <ele>143.111</ele>
        <time>2014-10-11T08:10:29Z</time>
      </trkpt>
      <trkpt lat="48.7846" lon="2.07885">
        <ele>142.134</ele>
        <time>2014-10-11T08:10:31Z</time>
      </trkpt>
      <trkpt lat="48.78464" lon="2.07892">
        <ele>141.949</ele>
        <time>2014-10-11T08:10:35Z</time>
      </trkpt>
      <trkpt lat="48.78468" lon="2.07901">
        <ele>140.651</ele>
        <time>2014-10-11T08:10:39Z</time>
      </trkpt>
      <trkpt lat="48.78473" lon="2.07916">
        <ele>142.416</ele>
        <time>2014-10-11T08:10:46Z</time>
      </trkpt>
      <trkpt lat="48.7848" lon="2.07926">
        <ele>149.544</ele>
        <time>2014-10-11T08:10:52Z</time>
      </trkpt>
      <trkpt lat="48.78488" lon="2.07942">
        <ele>151.609</ele>
        <time>2014-10-11T08:10:59Z</time>
      </trkpt>
      <trkpt lat="48.78493" lon="2.0795">
        <ele>153.233</ele>
        <time>2014-10-11T08:11:02Z</time>
      </trkpt>
      <trkpt lat="48.78496" lon="2.07959">
        <ele>150.562</ele>
        <time>2014-10-11T08:11:06Z</time>
      </trkpt>
      <trkpt lat="48.78501" lon="2.07965">
        <ele>148.947</ele>
        <time>2014-10-11T08:11:09Z</time>
      </trkpt>
      <trkpt lat="48.78507" lon="2.07979">
        <ele>143.677</ele>
        <time>2014-10-11T08:11:16Z</time>
      </trkpt>
      <trkpt lat="48.78515" lon="2.07987">
        <ele>144.636</ele>
        <time>2014-10-11T08:11:22Z</time>
      </trkpt>
      <trkpt lat="48.78516" lon="2.07989">
        <ele>142.757</ele>
        <time>2014-10-11T08:11:24Z</time>
      </trkpt>
      <trkpt lat="48.7852" lon="2.07998">
        <ele>135.587</ele>
        <time>2014-10-11T08:11:29Z</time>
      </trkpt>
      <trkpt lat="48.78522" lon="2.08005">
        <ele>138.822</ele>
        <time>2014-10-11T08:11:33Z</time>
      </trkpt>
      <trkpt lat="48.78532" lon="2.08018">
        <ele>144.29</ele>
        <time>2014-10-11T08:11:40Z</time>
      </trkpt>
      <trkpt lat="48.78534" lon="2.08034">
        <ele>153.823</ele>
        <time>2014-10-11T08:11:45Z</time>
      </trkpt>
      <trkpt lat="48.78536" lon="2.08037">
        <ele>155.554</ele>
        <time>2014-10-11T08:11:47Z</time>
      </trkpt>
      <trkpt lat="48.78537" lon="2.08041">
        <ele>158.191</ele>
        <time>2014-10-11T08:11:49Z</time>
      </trkpt>
      <trkpt lat="48.78542" lon="2.0805">
        <ele>163.327</ele>
        <time>2014-10-11T08:11:54Z</time>
      </trkpt>
      <trkpt lat="48.78544" lon="2.08054">
        <ele>165.909</ele>
        <time>2014-10-11T08:11:56Z</time>
      </trkpt>
      <trkpt lat="48.78551" lon="2.08067">
        <ele>166.753</ele>
        <time>2014-10-11T08:12:03Z</time>
      </trkpt>
      <trkpt lat="48.78555" lon="2.08078">
        <ele>167.215</ele>
        <time>2014-10-11T08:12:08Z</time>
      </trkpt>
      <trkpt lat="48.7856" lon="2.08085">
        <ele>166.058</ele>
        <time>2014-10-11T08:12:11Z</time>
      </trkpt>
      <trkpt lat="48.78568" lon="2.08094">
        <ele>164.686</ele>
        <time>2014-10-11T08:12:17Z</time>
      </trkpt>
      <trkpt lat="48.78576" lon="2.08099">
        <ele>163.152</ele>
        <time>2014-10-11T08:12:23Z</time>
      </trkpt>
      <trkpt lat="48.78582" lon="2.08112">
        <ele>161.989</ele>
        <time>2014-10-11T08:12:29Z</time>
      </trkpt>
      <trkpt lat="48.78582" lon="2.08114">
        <ele>161.757</ele>
        <time>2014-10-11T08:12:30Z</time>
      </trkpt>
      <trkpt lat="48.78584" lon="2.08122">
        <ele>158.411</ele>
        <time>2014-10-11T08:12:34Z</time>
      </trkpt>
      <trkpt lat="48.78591" lon="2.0813">
        <ele>150.487</ele>
        <time>2014-10-11T08:12:40Z</time>
      </trkpt>
      <trkpt lat="48.78595" lon="2.08136">
        <ele>148.515</ele>
        <time>2014-10-11T08:12:44Z</time>
      </trkpt>
      <trkpt lat="48.78603" lon="2.0814">
        <ele>149.48</ele>
        <time>2014-10-11T08:12:50Z</time>
      </trkpt>
      <trkpt lat="48.78613" lon="2.08135">
        <ele>148.53</ele>
        <time>2014-10-11T08:12:56Z</time>
      </trkpt>
      <trkpt lat="48.78622" lon="2.08127">
        <ele>150.943</ele>
        <time>2014-10-11T08:13:02Z</time>
      </trkpt>
      <trkpt lat="48.78629" lon="2.08119">
        <ele>155.627</ele>
        <time>2014-10-11T08:13:06Z</time>
      </trkpt>
      <trkpt lat="48.78631" lon="2.08116">
        <ele>157.926</ele>
        <time>2014-10-11T08:13:08Z</time>
      </trkpt>
      <trkpt lat="48.78635" lon="2.08109">
        <ele>161.424</ele>
        <time>2014-10-11T08:13:14Z</time>
      </trkpt>
      <trkpt lat="48.78645" lon="2.08105">
        <ele>155.59</ele>
        <time>2014-10-11T08:13:21Z</time>
      </trkpt>
      <trkpt lat="48.78655" lon="2.08103">
        <ele>153.884</ele>
        <time>2014-10-11T08:13:26Z</time>
      </trkpt>
      <trkpt lat="48.78663" lon="2.081">
        <ele>153.33</ele>
        <time>2014-10-11T08:13:30Z</time>
      </trkpt>
      <trkpt lat="48.78673" lon="2.08101">
        <ele>150.49</ele>
        <time>2014-10-11T08:13:35Z</time>
      </trkpt>
      <trkpt lat="48.78684" lon="2.08103">
        <ele>151.952</ele>
        <time>2014-10-11T08:13:40Z</time>
      </trkpt>
      <trkpt lat="48.78688" lon="2.08102">
        <ele>151.715</ele>
        <time>2014-10-11T08:13:42Z</time>
      </trkpt>
      <trkpt lat="48.78698" lon="2.081">
        <ele>151.058</ele>
        <time>2014-10-11T08:13:47Z</time>
      </trkpt>
      <trkpt lat="48.78707" lon="2.08098">
        <ele>156.263</ele>
        <time>2014-10-11T08:13:51Z</time>
      </trkpt>
      <trkpt lat="48.78709" lon="2.08099">
        <ele>157.286</ele>
        <time>2014-10-11T08:13:53Z</time>
      </trkpt>
      <trkpt lat="48.7872" lon="2.08098">
        <ele>154.01</ele>
        <time>2014-10-11T08:13:58Z</time>
      </trkpt>
      <trkpt lat="48.78729" lon="2.08098">
        <ele>152.181</ele>
        <time>2014-10-11T08:14:04Z</time>
      </trkpt>
      <trkpt lat="48.78732" lon="2.08096">
        <ele>150.345</ele>
        <time>2014-10-11T08:14:09Z</time>
      </trkpt>
      <trkpt lat="48.78742" lon="2.08103">
        <ele>148.878</ele>
        <time>2014-10-11T08:14:14Z</time>
      </trkpt>
      <trkpt lat="48.78753" lon="2.08113">
        <ele>151.099</ele>
        <time>2014-10-11T08:14:20Z</time>
      </trkpt>
      <trkpt lat="48.78761" lon="2.08124">
        <ele>154.563</ele>
        <time>2014-10-11T08:14:25Z</time>
      </trkpt>
      <trkpt lat="48.78765" lon="2.08135">
        <ele>149.161</ele>
        <time>2014-10-11T08:14:31Z</time>
      </trkpt>
      <trkpt lat="48.78773" lon="2.08144">
        <ele>151.969</ele>
        <time>2014-10-11T08:14:37Z</time>
      </trkpt>
      <trkpt lat="48.78784" lon="2.08148">
        <ele>161.618</ele>
        <time>2014-10-11T08:14:42Z</time>
      </trkpt>
      <trkpt lat="48.78786" lon="2.08149">
        <ele>163.456</ele>
        <time>2014-10-11T08:14:43Z</time>
      </trkpt>
      <trkpt lat="48.78792" lon="2.08152">
        <ele>168.157</ele>
        <time>2014-10-11T08:14:47Z</time>
      </trkpt>
      <trkpt lat="48.78803" lon="2.08162">
        <ele>174.789</ele>
        <time>2014-10-11T08:14:55Z</time>
      </trkpt>
      <trkpt lat="48.78808" lon="2.08169">
        <ele>179.275</ele>
        <time>2014-10-11T08:14:59Z</time>
      </trkpt>
      <trkpt lat="48.7881" lon="2.08178">
        <ele>183.158</ele>
        <time>2014-10-11T08:15:03Z</time>
      </trkpt>
      <trkpt lat="48.78813" lon="2.08179">
        <ele>187.408</ele>
        <time>2014-10-11T08:15:07Z</time>
      </trkpt>
      <trkpt lat="48.78817" lon="2.08174">
        <ele>193.4</ele>
        <time>2014-10-11T08:15:14Z</time>
      </trkpt>
      <trkpt lat="48.78816" lon="2.08172">
        <ele>184.772</ele>
        <time>2014-10-11T08:15:21Z</time>
      </trkpt>
      <trkpt lat="48.78814" lon="2.08174">
        <ele>183.442</ele>
        <time>2014-10-11T08:15:24Z</time>
      </trkpt>
      <trkpt lat="48.78815" lon="2.08171">
        <ele>180.668</ele>
        <time>2014-10-11T08:15:26Z</time>
      </trkpt>
      <trkpt lat="48.78819" lon="2.08159">
        <ele>168.893</ele>
        <time>2014-10-11T08:15:31Z</time>
      </trkpt>
      <trkpt lat="48.78817" lon="2.08148">
        <ele>154.035</ele>
        <time>2014-10-11T08:15:37Z</time>
      </trkpt>
      <trkpt lat="48.78816" lon="2.0814">
        <ele>148.986</ele>
        <time>2014-10-11T08:15:41Z</time>
      </trkpt>
      <trkpt lat="48.78816" lon="2.08123">
        <ele>145.438</ele>
        <time>2014-10-11T08:15:49Z</time>
      </trkpt>
      <trkpt lat="48.78818" lon="2.08113">
        <ele>144.26</ele>
        <time>2014-10-11T08:15:52Z</time>
      </trkpt>
      <trkpt lat="48.78816" lon="2.08108">
        <ele>146.271</ele>
        <time>2014-10-11T08:15:55Z</time>
      </trkpt>
      <trkpt lat="48.78818" lon="2.08091">
        <ele>145.212</ele>
        <time>2014-10-11T08:16:01Z</time>
      </trkpt>
      <trkpt lat="48.78817" lon="2.08081">
        <ele>149.781</ele>
        <time>2014-10-11T08:16:05Z</time>
      </trkpt>
      <trkpt lat="48.78817" lon="2.08069">
        <ele>153.244</ele>
        <time>2014-10-11T08:16:10Z</time>
      </trkpt>
      <trkpt lat="48.78816" lon="2.08059">
        <ele>160.435</ele>
        <time>2014-10-11T08:16:15Z</time>
      </trkpt>
      <trkpt lat="48.78812" lon="2.08051">
        <ele>163.541</ele>
        <time>2014-10-11T08:16:20Z</time>
      </trkpt>
      <trkpt lat="48.78809" lon="2.08038">
        <ele>166.344</ele>
        <time>2014-10-11T08:16:25Z</time>
      </trkpt>
      <trkpt lat="48.78807" lon="2.0803">
        <ele>170.988</ele>
        <time>2014-10-11T08:16:29Z</time>
      </trkpt>
      <trkpt lat="48.78806" lon="2.08025">
        <ele>172.744</ele>
        <time>2014-10-11T08:16:33Z</time>
      </trkpt>
      <trkpt lat="48.78804" lon="2.08015">
        <ele>174.464</ele>
        <time>2014-10-11T08:16:38Z</time>
      </trkpt>
      <trkpt lat="48.78805" lon="2.07999">
        <ele>171.733</ele>
        <time>2014-10-11T08:16:44Z</time>
      </trkpt>
      <trkpt lat="48.78805" lon="2.07997">
        <ele>170.122</ele>
        <time>2014-10-11T08:16:45Z</time>
      </trkpt>
      <trkpt lat="48.78804" lon="2.07982">
        <ele>166.811</ele>
        <time>2014-10-11T08:16:50Z</time>
      </trkpt>
      <trkpt lat="48.78799" lon="2.07967">
        <ele>164.8</ele>
        <time>2014-10-11T08:16:56Z</time>
      </trkpt>
      <trkpt lat="48.78797" lon="2.07966">
        <ele>165.704</ele>
        <time>2014-10-11T08:16:57Z</time>
      </trkpt>
      <trkpt lat="48.78791" lon="2.07946">
        <ele>165.022</ele>
        <time>2014-10-11T08:17:04Z</time>
      </trkpt>
      <trkpt lat="48.78787" lon="2.07932">
        <ele>168.712</ele>
        <time>2014-10-11T08:17:08Z</time>
      </trkpt>
      <trkpt lat="48.78786" lon="2.07922">
        <ele>174.93</ele>
        <time>2014-10-11T08:17:14Z</time>
      </trkpt>
      <trkpt lat="48.78778" lon="2.07907">
        <ele>176.147</ele>
        <time>2014-10-11T08:17:20Z</time>
      </trkpt>
      <trkpt lat="48.78777" lon="2.07895">
        <ele>178.841</ele>
        <time>2014-10-11T08:17:24Z</time>
      </trkpt>
      <trkpt lat="48.78777" lon="2.07892">
        <ele>181.599</ele>
        <time>2014-10-11T08:17:25Z</time>
      </trkpt>
      <trkpt lat="48.78775" lon="2.07881">
        <ele>183.549</ele>
        <time>2014-10-11T08:17:31Z</time>
      </trkpt>
      <trkpt lat="48.78774" lon="2.07872">
        <ele>184.147</ele>
        <time>2014-10-11T08:17:35Z</time>
      </trkpt>
      <trkpt lat="48.78776" lon="2.07854">
        <ele>191.942</ele>
        <time>2014-10-11T08:17:42Z</time>
      </trkpt>
      <trkpt lat="48.78779" lon="2.0784">
        <ele>196.843</ele>
        <time>2014-10-11T08:17:48Z</time>
      </trkpt>
      <trkpt lat="48.78779" lon="2.07838">
        <ele>197.467</ele>
        <time>2014-10-11T08:17:49Z</time>
      </trkpt>
      <trkpt lat="48.78776" lon="2.07825">
        <ele>196.147</ele>
        <time>2014-10-11T08:17:55Z</time>
      </trkpt>
      <trkpt lat="48.78774" lon="2.07804">
        <ele>198.955</ele>
        <time>2014-10-11T08:18:03Z</time>
      </trkpt>
      <trkpt lat="48.78774" lon="2.07786">
        <ele>199.214</ele>
        <time>2014-10-11T08:18:10Z</time>
      </trkpt>
      <trkpt lat="48.78773" lon="2.0778">
        <ele>199.412</ele>
        <time>2014-10-11T08:18:13Z</time>
      </trkpt>
      <trkpt lat="48.78771" lon="2.07769">
        <ele>196.694</ele>
        <time>2014-10-11T08:18:18Z</time>
      </trkpt>
      <trkpt lat="48.78771" lon="2.07752">
        <ele>192.963</ele>
        <time>2014-10-11T08:18:24Z</time>
      </trkpt>
      <trkpt lat="48.78775" lon="2.07736">
        <ele>189.306</ele>
        <time>2014-10-11T08:18:30Z</time>
      </trkpt>
      <trkpt lat="48.78774" lon="2.07729">
        <ele>185.435</ele>
        <time>2014-10-11T08:18:33Z</time>
      </trkpt>
      <trkpt lat="48.78774" lon="2.07725">
        <ele>182.292</ele>
        <time>2014-10-11T08:18:35Z</time>
      </trkpt>
      <trkpt lat="48.78772" lon="2.07721">
        <ele>181.872</ele>
        <time>2014-10-11T08:18:37Z</time>
      </trkpt>
      <trkpt lat="48.78771" lon="2.07714">
        <ele>177.821</ele>
        <time>2014-10-11T08:18:40Z</time>
      </trkpt>
      <trkpt lat="48.78772" lon="2.07696">
        <ele>172.165</ele>
        <time>2014-10-11T08:18:46Z</time>
      </trkpt>
      <trkpt lat="48.78778" lon="2.07683">
        <ele>167.107</ele>
        <time>2014-10-11T08:18:50Z</time>
      </trkpt>
      <trkpt lat="48.78777" lon="2.07681">
        <ele>166.087</ele>
        <time>2014-10-11T08:18:51Z</time>
      </trkpt>
      <trkpt lat="48.78776" lon="2.07678">
        <ele>165.6</ele>
        <time>2014-10-11T08:18:54Z</time>
      </trkpt>
      <trkpt lat="48.78776" lon="2.07666">
        <ele>163.56</ele>
        <time>2014-10-11T08:18:58Z</time>
      </trkpt>
      <trkpt lat="48.7877" lon="2.07648">
        <ele>157.116</ele>
        <time>2014-10-11T08:19:05Z</time>
      </trkpt>
      <trkpt lat="48.78775" lon="2.07628">
        <ele>156.252</ele>
        <time>2014-10-11T08:19:10Z</time>
      </trkpt>
      <trkpt lat="48.78774" lon="2.07617">
        <ele>152.539</ele>
        <time>2014-10-11T08:19:15Z</time>
      </trkpt>
      <trkpt lat="48.78773" lon="2.07605">
        <ele>156.432</ele>
        <time>2014-10-11T08:19:22Z</time>
      </trkpt>
      <trkpt lat="48.78773" lon="2.07601">
        <ele>154.948</ele>
        <time>2014-10-11T08:19:24Z</time>
      </trkpt>
      <trkpt lat="48.7877" lon="2.07586">
        <ele>149.579</ele>
        <time>2014-10-11T08:19:29Z</time>
      </trkpt>
      <trkpt lat="48.78769" lon="2.07578">
        <ele>147.59</ele>
        <time>2014-10-11T08:19:33Z</time>
      </trkpt>
      <trkpt lat="48.78765" lon="2.07566">
        <ele>145.79</ele>
        <time>2014-10-11T08:19:38Z</time>
      </trkpt>
      <trkpt lat="48.78759" lon="2.07552">
        <ele>148.546</ele>
        <time>2014-10-11T08:19:44Z</time>
      </trkpt>
      <trkpt lat="48.78758" lon="2.07539">
        <ele>155.864</ele>
        <time>2014-10-11T08:19:51Z</time>
      </trkpt>
      <trkpt lat="48.78754" lon="2.07528">
        <ele>165.297</ele>
        <time>2014-10-11T08:19:56Z</time>
      </trkpt>
      <trkpt lat="48.78754" lon="2.07526">
        <ele>167.216</ele>
        <time>2014-10-11T08:19:57Z</time>
      </trkpt>
      <trkpt lat="48.78751" lon="2.07514">
        <ele>175.431</ele>
        <time>2014-10-11T08:20:01Z</time>
      </trkpt>
      <trkpt lat="48.78746" lon="2.075">
        <ele>183.143</ele>
        <time>2014-10-11T08:20:08Z</time>
      </trkpt>
      <trkpt lat="48.78745" lon="2.07498">
        <ele>182.967</ele>
        <time>2014-10-11T08:20:09Z</time>
      </trkpt>
      <trkpt lat="48.78747" lon="2.07483">
        <ele>181.475</ele>
        <time>2014-10-11T08:20:15Z</time>
      </trkpt>
      <trkpt lat="48.78747" lon="2.07472">
        <ele>180.613</ele>
        <time>2014-10-11T08:20:19Z</time>
      </trkpt>
      <trkpt lat="48.78752" lon="2.07446">
        <ele>178.574</ele>
        <time>2014-10-11T08:20:27Z</time>
      </trkpt>
      <trkpt lat="48.78759" lon="2.07427">
        <ele>175.269</ele>
        <time>2014-10-11T08:20:33Z</time>
      </trkpt>
      <trkpt lat="48.7876" lon="2.07425">
        <ele>173.532</ele>
        <time>2014-10-11T08:20:34Z</time>
      </trkpt>
      <trkpt lat="48.78761" lon="2.0741">
        <ele>165.751</ele>
        <time>2014-10-11T08:20:40Z</time>
      </trkpt>
      <trkpt lat="48.78763" lon="2.07403">
        <ele>163.001</ele>
        <time>2014-10-11T08:20:42Z</time>
      </trkpt>
      <trkpt lat="48.78764" lon="2.07389">
        <ele>155.501</ele>
        <time>2014-10-11T08:20:47Z</time>
      </trkpt>
      <trkpt lat="48.78769" lon="2.07373">
        <ele>140.338</ele>
        <time>2014-10-11T08:20:55Z</time>
      </trkpt>
      <trkpt lat="48.78773" lon="2.07359">
        <ele>140.064</ele>
        <time>2014-10-11T08:21:01Z</time>
      </trkpt>
      <trkpt lat="48.78778" lon="2.07343">
        <ele>144.224</ele>
        <time>2014-10-11T08:21:06Z</time>
      </trkpt>
      <trkpt lat="48.78777" lon="2.0734">
        <ele>142.445</ele>
        <time>2014-10-11T08:21:07Z</time>
      </trkpt>
      <trkpt lat="48.78778" lon="2.07336">
        <ele>142.835</ele>
        <time>2014-10-11T08:21:09Z</time>
      </trkpt>
      <trkpt lat="48.78781" lon="2.07319">
        <ele>141.821</ele>
        <time>2014-10-11T08:21:17Z</time>
      </trkpt>
      <trkpt lat="48.78782" lon="2.07316">
        <ele>139.624</ele>
        <time>2014-10-11T08:21:19Z</time>
      </trkpt>
      <trkpt lat="48.78785" lon="2.07305">
        <ele>138.175</ele>
        <time>2014-10-11T08:21:25Z</time>
      </trkpt>
      <trkpt lat="48.78788" lon="2.07297">
        <ele>142.102</ele>
        <time>2014-10-11T08:21:27Z</time>
      </trkpt>
      <trkpt lat="48.7879" lon="2.0728">
        <ele>145.558</ele>
        <time>2014-10-11T08:21:33Z</time>
      </trkpt>
      <trkpt lat="48.78792" lon="2.07271">
        <ele>145.352</ele>
        <time>2014-10-11T08:21:37Z</time>
      </trkpt>
      <trkpt lat="48.78793" lon="2.07262">
        <ele>143.444</ele>
        <time>2014-10-11T08:21:42Z</time>
      </trkpt>
      <trkpt lat="48.78792" lon="2.07259">
        <ele>141.372</ele>
        <time>2014-10-11T08:21:43Z</time>
      </trkpt>
      <trkpt lat="48.78795" lon="2.07245">
        <ele>140.181</ele>
        <time>2014-10-11T08:21:49Z</time>
      </trkpt>
      <trkpt lat="48.78797" lon="2.07231">
        <ele>137.391</ele>
        <time>2014-10-11T08:21:53Z</time>
      </trkpt>
      <trkpt lat="48.78792" lon="2.07218">
        <ele>136.811</ele>
        <time>2014-10-11T08:21:58Z</time>
      </trkpt>
      <trkpt lat="48.78792" lon="2.07203">
        <ele>138.598</ele>
        <time>2014-10-11T08:22:03Z</time>
      </trkpt>
      <trkpt lat="48.78797" lon="2.07193">
        <ele>141.622</ele>
        <time>2014-10-11T08:22:08Z</time>
      </trkpt>
      <trkpt lat="48.78798" lon="2.07188">
        <ele>146.152</ele>
        <time>2014-10-11T08:22:11Z</time>
      </trkpt>
      <trkpt lat="48.78801" lon="2.07178">
        <ele>148.014</ele>
        <time>2014-10-11T08:22:16Z</time>
      </trkpt>
      <trkpt lat="48.78802" lon="2.07174">
        <ele>148.875</ele>
        <time>2014-10-11T08:22:18Z</time>
      </trkpt>
      <trkpt lat="48.78802" lon="2.07156">
        <ele>150.376</ele>
        <time>2014-10-11T08:22:26Z</time>
      </trkpt>
      <trkpt lat="48.78808" lon="2.07138">
        <ele>158.591</ele>
        <time>2014-10-11T08:22:32Z</time>
      </trkpt>
      <trkpt lat="48.78811" lon="2.07132">
        <ele>160.008</ele>
        <time>2014-10-11T08:22:35Z</time>
      </trkpt>
      <trkpt lat="48.78814" lon="2.07122">
        <ele>159.764</ele>
        <time>2014-10-11T08:22:40Z</time>
      </trkpt>
      <trkpt lat="48.78814" lon="2.0711">
        <ele>159.717</ele>
        <time>2014-10-11T08:22:44Z</time>
      </trkpt>
      <trkpt lat="48.78816" lon="2.07097">
        <ele>166.226</ele>
        <time>2014-10-11T08:22:51Z</time>
      </trkpt>
      <trkpt lat="48.78818" lon="2.0708">
        <ele>165.091</ele>
        <time>2014-10-11T08:22:57Z</time>
      </trkpt>
      <trkpt lat="48.78817" lon="2.07066">
        <ele>164.765</ele>
        <time>2014-10-11T08:23:02Z</time>
      </trkpt>
      <trkpt lat="48.78821" lon="2.07044">
        <ele>164.877</ele>
        <time>2014-10-11T08:23:09Z</time>
      </trkpt>
      <trkpt lat="48.78828" lon="2.07024">
        <ele>161.114</ele>
        <time>2014-10-11T08:23:16Z</time>
      </trkpt>
      <trkpt lat="48.78832" lon="2.07012">
        <ele>159.953</ele>
        <time>2014-10-11T08:23:21Z</time>
      </trkpt>
      <trkpt lat="48.78833" lon="2.0701">
        <ele>160.133</ele>
        <time>2014-10-11T08:23:22Z</time>
      </trkpt>
      <trkpt lat="48.78841" lon="2.07">
        <ele>158.422</ele>
        <time>2014-10-11T08:23:28Z</time>
      </trkpt>
      <trkpt lat="48.78848" lon="2.06992">
        <ele>162.354</ele>
        <time>2014-10-11T08:23:33Z</time>
      </trkpt>
      <trkpt lat="48.78855" lon="2.06979">
        <ele>163.766</ele>
        <time>2014-10-11T08:23:39Z</time>
      </trkpt>
      <trkpt lat="48.78856" lon="2.06977">
        <ele>163.331</ele>
        <time>2014-10-11T08:23:40Z</time>
      </trkpt>
      <trkpt lat="48.78867" lon="2.06969">
        <ele>162.624</ele>
        <time>2014-10-11T08:23:46Z</time>
      </trkpt>
      <trkpt lat="48.78882" lon="2.06971">
        <ele>164.724</ele>
        <time>2014-10-11T08:23:53Z</time>
      </trkpt>
      <trkpt lat="48.78892" lon="2.06973">
        <ele>163.053</ele>
        <time>2014-10-11T08:23:59Z</time>
      </trkpt>
      <trkpt lat="48.78903" lon="2.06981">
        <ele>163.464</ele>
        <time>2014-10-11T08:24:05Z</time>
      </trkpt>
      <trkpt lat="48.78912" lon="2.06994">
        <ele>162.294</ele>
        <time>2014-10-11T08:24:11Z</time>
      </trkpt>
      <trkpt lat="48.78914" lon="2.06997">
        <ele>162.523</ele>
        <time>2014-10-11T08:24:12Z</time>
      </trkpt>
      <trkpt lat="48.78917" lon="2.07008">
        <ele>162.043</ele>
        <time>2014-10-11T08:24:17Z</time>
      </trkpt>
      <trkpt lat="48.78917" lon="2.07018">
        <ele>161.753</ele>
        <time>2014-10-11T08:24:21Z</time>
      </trkpt>
      <trkpt lat="48.78914" lon="2.07032">
        <ele>163.283</ele>
        <time>2014-10-11T08:24:27Z</time>
      </trkpt>
      <trkpt lat="48.78911" lon="2.07042">
        <ele>159.782</ele>
        <time>2014-10-11T08:24:31Z</time>
      </trkpt>
      <trkpt lat="48.7891" lon="2.07054">
        <ele>164.743</ele>
        <time>2014-10-11T08:24:37Z</time>
      </trkpt>
      <trkpt lat="48.78911" lon="2.07061">
        <ele>165.273</ele>
        <time>2014-10-11T08:24:40Z</time>
      </trkpt>
      <trkpt lat="48.7891" lon="2.07077">
        <ele>166.993</ele>
        <time>2014-10-11T08:24:48Z</time>
      </trkpt>
      <trkpt lat="48.78905" lon="2.0709">
        <ele>169.083</ele>
        <time>2014-10-11T08:24:53Z</time>
      </trkpt>
      <trkpt lat="48.78904" lon="2.07096">
        <ele>168.933</ele>
        <time>2014-10-11T08:24:56Z</time>
      </trkpt>
      <trkpt lat="48.78903" lon="2.07107">
        <ele>167.342</ele>
        <time>2014-10-11T08:25:00Z</time>
      </trkpt>
      <trkpt lat="48.78901" lon="2.07123">
        <ele>167.452</ele>
        <time>2014-10-11T08:25:06Z</time>
      </trkpt>
      <trkpt lat="48.78903" lon="2.07129">
        <ele>173.174</ele>
        <time>2014-10-11T08:25:09Z</time>
      </trkpt>
      <trkpt lat="48.78903" lon="2.07138">
        <ele>176.455</ele>
        <time>2014-10-11T08:25:13Z</time>
      </trkpt>
      <trkpt lat="48.78903" lon="2.07145">
        <ele>177.904</ele>
        <time>2014-10-11T08:25:16Z</time>
      </trkpt>
      <trkpt lat="48.78903" lon="2.07157">
        <ele>174.873</ele>
        <time>2014-10-11T08:25:20Z</time>
      </trkpt>
      <trkpt lat="48.78901" lon="2.07176">
        <ele>175.063</ele>
        <time>2014-10-11T08:25:27Z</time>
      </trkpt>
      <trkpt lat="48.789" lon="2.07178">
        <ele>174.832</ele>
        <time>2014-10-11T08:25:28Z</time>
      </trkpt>
      <trkpt lat="48.789" lon="2.07184">
        <ele>174.622</ele>
        <time>2014-10-11T08:25:30Z</time>
      </trkpt>
      <trkpt lat="48.78897" lon="2.07201">
        <ele>174.412</ele>
        <time>2014-10-11T08:25:37Z</time>
      </trkpt>
      <trkpt lat="48.78897" lon="2.07202">
        <ele>174.673</ele>
        <time>2014-10-11T08:25:38Z</time>
      </trkpt>
      <trkpt lat="48.78898" lon="2.07221">
        <ele>175.914</ele>
        <time>2014-10-11T08:25:45Z</time>
      </trkpt>
      <trkpt lat="48.78897" lon="2.0723">
        <ele>176.253</ele>
        <time>2014-10-11T08:25:49Z</time>
      </trkpt>
      <trkpt lat="48.78897" lon="2.07239">
        <ele>175.103</ele>
        <time>2014-10-11T08:25:54Z</time>
      </trkpt>
      <trkpt lat="48.78895" lon="2.07246">
        <ele>171.361</ele>
        <time>2014-10-11T08:25:56Z</time>
      </trkpt>
      <trkpt lat="48.78892" lon="2.07261">
        <ele>171.281</ele>
        <time>2014-10-11T08:26:01Z</time>
      </trkpt>
      <trkpt lat="48.78891" lon="2.07274">
        <ele>168.421</ele>
        <time>2014-10-11T08:26:06Z</time>
      </trkpt>
      <trkpt lat="48.78889" lon="2.07288">
        <ele>167.021</ele>
        <time>2014-10-11T08:26:12Z</time>
      </trkpt>
      <trkpt lat="48.78889" lon="2.07307">
        <ele>167.922</ele>
        <time>2014-10-11T08:26:18Z</time>
      </trkpt>
      <trkpt lat="48.78887" lon="2.07317">
        <ele>170.342</ele>
        <time>2014-10-11T08:26:21Z</time>
      </trkpt>
      <trkpt lat="48.78887" lon="2.07331">
        <ele>174.344</ele>
        <time>2014-10-11T08:26:27Z</time>
      </trkpt>
      <trkpt lat="48.78888" lon="2.07337">
        <ele>176.555</ele>
        <time>2014-10-11T08:26:30Z</time>
      </trkpt>
      <trkpt lat="48.78885" lon="2.07354">
        <ele>176.283</ele>
        <time>2014-10-11T08:26:37Z</time>
      </trkpt>
      <trkpt lat="48.78883" lon="2.07362">
        <ele>178.093</ele>
        <time>2014-10-11T08:26:40Z</time>
      </trkpt>
      <trkpt lat="48.78881" lon="2.0737">
        <ele>176.953</ele>
        <time>2014-10-11T08:26:43Z</time>
      </trkpt>
      <trkpt lat="48.7888" lon="2.0738">
        <ele>179.093</ele>
        <time>2014-10-11T08:26:48Z</time>
      </trkpt>
      <trkpt lat="48.7888" lon="2.07394">
        <ele>175.311</ele>
        <time>2014-10-11T08:26:53Z</time>
      </trkpt>
      <trkpt lat="48.78878" lon="2.07413">
        <ele>169.22</ele>
        <time>2014-10-11T08:27:00Z</time>
      </trkpt>
      <trkpt lat="48.78876" lon="2.07426">
        <ele>164.099</ele>
        <time>2014-10-11T08:27:05Z</time>
      </trkpt>
      <trkpt lat="48.78875" lon="2.07448">
        <ele>154.508</ele>
        <time>2014-10-11T08:27:13Z</time>
      </trkpt>
      <trkpt lat="48.78875" lon="2.07458">
        <ele>156.411</ele>
        <time>2014-10-11T08:27:18Z</time>
      </trkpt>
      <trkpt lat="48.78876" lon="2.0746">
        <ele>158.862</ele>
        <time>2014-10-11T08:27:19Z</time>
      </trkpt>
      <trkpt lat="48.78877" lon="2.07474">
        <ele>159.912</ele>
        <time>2014-10-11T08:27:24Z</time>
      </trkpt>
      <trkpt lat="48.78878" lon="2.07491">
        <ele>160.082</ele>
        <time>2014-10-11T08:27:31Z</time>
      </trkpt>
      <trkpt lat="48.78879" lon="2.07507">
        <ele>160.363</ele>
        <time>2014-10-11T08:27:37Z</time>
      </trkpt>
      <trkpt lat="48.78878" lon="2.07515">
        <ele>158.772</ele>
        <time>2014-10-11T08:27:40Z</time>
      </trkpt>
      <trkpt lat="48.78881" lon="2.07532">
        <ele>166.404</ele>
        <time>2014-10-11T08:27:47Z</time>
      </trkpt>
      <trkpt lat="48.78881" lon="2.07535">
        <ele>166.955</ele>
        <time>2014-10-11T08:27:48Z</time>
      </trkpt>
      <trkpt lat="48.78882" lon="2.0754">
        <ele>169.385</ele>
        <time>2014-10-11T08:27:50Z</time>
      </trkpt>
      <trkpt lat="48.78884" lon="2.07553">
        <ele>175.926</ele>
        <time>2014-10-11T08:27:55Z</time>
      </trkpt>
      <trkpt lat="48.78885" lon="2.07566">
        <ele>173.604</ele>
        <time>2014-10-11T08:27:59Z</time>
      </trkpt>
      <trkpt lat="48.78885" lon="2.07583">
        <ele>175.164</ele>
        <time>2014-10-11T08:28:05Z</time>
      </trkpt>
      <trkpt lat="48.78885" lon="2.07584">
        <ele>178.545</ele>
        <time>2014-10-11T08:28:07Z</time>
      </trkpt>
      <trkpt lat="48.78885" lon="2.07602">
        <ele>180.054</ele>
        <time>2014-10-11T08:28:14Z</time>
      </trkpt>
      <trkpt lat="48.78887" lon="2.07612">
        <ele>177.753</ele>
        <time>2014-10-11T08:28:18Z</time>
      </trkpt>
      <trkpt lat="48.78887" lon="2.07625">
        <ele>173.541</ele>
        <time>2014-10-11T08:28:23Z</time>
      </trkpt>
      <trkpt lat="48.78888" lon="2.0764">
        <ele>166.87</ele>
        <time>2014-10-11T08:28:28Z</time>
      </trkpt>
      <trkpt lat="48.78888" lon="2.07644">
        <ele>166.85</ele>
        <time>2014-10-11T08:28:30Z</time>
      </trkpt>
      <trkpt lat="48.78891" lon="2.07661">
        <ele>163.59</ele>
        <time>2014-10-11T08:28:37Z</time>
      </trkpt>
      <trkpt lat="48.78891" lon="2.07664">
        <ele>162.41</ele>
        <time>2014-10-11T08:28:38Z</time>
      </trkpt>
      <trkpt lat="48.78892" lon="2.07671">
        <ele>161.921</ele>
        <time>2014-10-11T08:28:41Z</time>
      </trkpt>
      <trkpt lat="48.78892" lon="2.07679">
        <ele>161.131</ele>
        <time>2014-10-11T08:28:44Z</time>
      </trkpt>
      <trkpt lat="48.78891" lon="2.07691">
        <ele>164.592</ele>
        <time>2014-10-11T08:28:50Z</time>
      </trkpt>
      <trkpt lat="48.78891" lon="2.07694">
        <ele>164.512</ele>
        <time>2014-10-11T08:28:51Z</time>
      </trkpt>
      <trkpt lat="48.78893" lon="2.07699">
        <ele>163.733</ele>
        <time>2014-10-11T08:28:53Z</time>
      </trkpt>
      <trkpt lat="48.78893" lon="2.0771">
        <ele>166.623</ele>
        <time>2014-10-11T08:28:57Z</time>
      </trkpt>
      <trkpt lat="48.78897" lon="2.07718">
        <ele>170.494</ele>
        <time>2014-10-11T08:29:01Z</time>
      </trkpt>
      <trkpt lat="48.78903" lon="2.0773">
        <ele>174.804</ele>
        <time>2014-10-11T08:29:06Z</time>
      </trkpt>
      <trkpt lat="48.78907" lon="2.07742">
        <ele>176.374</ele>
        <time>2014-10-11T08:29:11Z</time>
      </trkpt>
      <trkpt lat="48.78907" lon="2.07744">
        <ele>178.015</ele>
        <time>2014-10-11T08:29:12Z</time>
      </trkpt>
      <trkpt lat="48.78909" lon="2.0775">
        <ele>179.605</ele>
        <time>2014-10-11T08:29:15Z</time>
      </trkpt>
      <trkpt lat="48.78914" lon="2.07765">
        <ele>183.535</ele>
        <time>2014-10-11T08:29:21Z</time>
      </trkpt>
      <trkpt lat="48.78917" lon="2.07772">
        <ele>185.285</ele>
        <time>2014-10-11T08:29:24Z</time>
      </trkpt>
      <trkpt lat="48.78923" lon="2.07785">
        <ele>189.025</ele>
        <time>2014-10-11T08:29:30Z</time>
      </trkpt>
      <trkpt lat="48.78927" lon="2.07794">
        <ele>189.705</ele>
        <time>2014-10-11T08:29:34Z</time>
      </trkpt>
      <trkpt lat="48.7893" lon="2.07804">
        <ele>192.206</ele>
        <time>2014-10-11T08:29:38Z</time>
      </trkpt>
      <trkpt lat="48.78931" lon="2.07809">
        <ele>192.345</ele>
        <time>2014-10-11T08:29:40Z</time>
      </trkpt>
      <trkpt lat="48.78935" lon="2.07824">
        <ele>192.904</ele>
        <time>2014-10-11T08:29:47Z</time>
      </trkpt>
      <trkpt lat="48.78939" lon="2.07837">
        <ele>189.403</ele>
        <time>2014-10-11T08:29:53Z</time>
      </trkpt>
      <trkpt lat="48.78941" lon="2.07842">
        <ele>188.313</ele>
        <time>2014-10-11T08:29:55Z</time>
      </trkpt>
      <trkpt lat="48.78944" lon="2.07851">
        <ele>185.603</ele>
        <time>2014-10-11T08:29:59Z</time>
      </trkpt>
      <trkpt lat="48.7895" lon="2.07871">
        <ele>177.931</ele>
        <time>2014-10-11T08:30:06Z</time>
      </trkpt>
      <trkpt lat="48.78951" lon="2.07872">
        <ele>176.841</ele>
        <time>2014-10-11T08:30:07Z</time>
      </trkpt>
      <trkpt lat="48.78954" lon="2.07888">
        <ele>172.911</ele>
        <time>2014-10-11T08:30:13Z</time>
      </trkpt>
      <trkpt lat="48.78959" lon="2.07899">
        <ele>171.471</ele>
        <time>2014-10-11T08:30:17Z</time>
      </trkpt>
      <trkpt lat="48.7896" lon="2.07902">
        <ele>169.5</ele>
        <time>2014-10-11T08:30:18Z</time>
      </trkpt>
      <trkpt lat="48.7896" lon="2.07907">
        <ele>168.03</ele>
        <time>2014-10-11T08:30:20Z</time>
      </trkpt>
      <trkpt lat="48.78959" lon="2.0791">
        <ele>166.63</ele>
        <time>2014-10-11T08:30:22Z</time>
      </trkpt>
      <trkpt lat="48.7896" lon="2.07924">
        <ele>162.67</ele>
        <time>2014-10-11T08:30:27Z</time>
      </trkpt>
      <trkpt lat="48.78959" lon="2.07941">
        <ele>163.821</ele>
        <time>2014-10-11T08:30:34Z</time>
      </trkpt>
      <trkpt lat="48.78958" lon="2.07944">
        <ele>163.531</ele>
        <time>2014-10-11T08:30:35Z</time>
      </trkpt>
      <trkpt lat="48.78953" lon="2.07959">
        <ele>166.873</ele>
        <time>2014-10-11T08:30:41Z</time>
      </trkpt>
      <trkpt lat="48.78951" lon="2.07968">
        <ele>167.432</ele>
        <time>2014-10-11T08:30:45Z</time>
      </trkpt>
      <trkpt lat="48.7895" lon="2.07979">
        <ele>171.923</ele>
        <time>2014-10-11T08:30:50Z</time>
      </trkpt>
      <trkpt lat="48.78944" lon="2.07993">
        <ele>172.123</ele>
        <time>2014-10-11T08:30:55Z</time>
      </trkpt>
      <trkpt lat="48.78941" lon="2.08009">
        <ele>172.014</ele>
        <time>2014-10-11T08:31:01Z</time>
      </trkpt>
      <trkpt lat="48.78937" lon="2.08024">
        <ele>167.482</ele>
        <time>2014-10-11T08:31:07Z</time>
      </trkpt>
      <trkpt lat="48.78934" lon="2.08033">
        <ele>162.971</ele>
        <time>2014-10-11T08:31:12Z</time>
      </trkpt>
      <trkpt lat="48.78934" lon="2.08035">
        <ele>163.151</ele>
        <time>2014-10-11T08:31:13Z</time>
      </trkpt>
      <trkpt lat="48.78932" lon="2.08046">
        <ele>162.392</ele>
        <time>2014-10-11T08:31:17Z</time>
      </trkpt>
      <trkpt lat="48.78933" lon="2.08058">
        <ele>161.702</ele>
        <time>2014-10-11T08:31:23Z</time>
      </trkpt>
      <trkpt lat="48.78932" lon="2.0806">
        <ele>161.112</ele>
        <time>2014-10-11T08:31:24Z</time>
      </trkpt>
      <trkpt lat="48.78933" lon="2.08074">
        <ele>160.522</ele>
        <time>2014-10-11T08:31:29Z</time>
      </trkpt>
      <trkpt lat="48.78931" lon="2.08081">
        <ele>160.231</ele>
        <time>2014-10-11T08:31:32Z</time>
      </trkpt>
      <trkpt lat="48.7893" lon="2.08092">
        <ele>164.572</ele>
        <time>2014-10-11T08:31:36Z</time>
      </trkpt>
      <trkpt lat="48.78928" lon="2.081">
        <ele>167.093</ele>
        <time>2014-10-11T08:31:39Z</time>
      </trkpt>
      <trkpt lat="48.78927" lon="2.08115">
        <ele>167.813</ele>
        <time>2014-10-11T08:31:45Z</time>
      </trkpt>
      <trkpt lat="48.78925" lon="2.08127">
        <ele>167.093</ele>
        <time>2014-10-11T08:31:49Z</time>
      </trkpt>
      <trkpt lat="48.7892" lon="2.08169">
        <ele>169.014</ele>
        <time>2014-10-11T08:32:04Z</time>
      </trkpt>
      <trkpt lat="48.78921" lon="2.08171">
        <ele>169.615</ele>
        <time>2014-10-11T08:32:05Z</time>
      </trkpt>
      <trkpt lat="48.78921" lon="2.08181">
        <ele>173.955</ele>
        <time>2014-10-11T08:32:12Z</time>
      </trkpt>
      <trkpt lat="48.78921" lon="2.08183">
        <ele>174.305</ele>
        <time>2014-10-11T08:32:13Z</time>
      </trkpt>
      <trkpt lat="48.78922" lon="2.0819">
        <ele>177.675</ele>
        <time>2014-10-11T08:32:17Z</time>
      </trkpt>
      <trkpt lat="48.78923" lon="2.08202">
        <ele>180.824</ele>
        <time>2014-10-11T08:32:22Z</time>
      </trkpt>
      <trkpt lat="48.78925" lon="2.08216">
        <ele>181.204</ele>
        <time>2014-10-11T08:32:27Z</time>
      </trkpt>
      <trkpt lat="48.7892" lon="2.08235">
        <ele>182.875</ele>
        <time>2014-10-11T08:32:33Z</time>
      </trkpt>
      <trkpt lat="48.7892" lon="2.08244">
        <ele>184.385</ele>
        <time>2014-10-11T08:32:36Z</time>
      </trkpt>
      <trkpt lat="48.7892" lon="2.08253">
        <ele>181.994</ele>
        <time>2014-10-11T08:32:39Z</time>
      </trkpt>
      <trkpt lat="48.78921" lon="2.08263">
        <ele>178.402</ele>
        <time>2014-10-11T08:32:43Z</time>
      </trkpt>
      <trkpt lat="48.78916" lon="2.08281">
        <ele>176.311</ele>
        <time>2014-10-11T08:32:50Z</time>
      </trkpt>
      <trkpt lat="48.78915" lon="2.08288">
        <ele>176.592</ele>
        <time>2014-10-11T08:32:52Z</time>
      </trkpt>
      <trkpt lat="48.78912" lon="2.08301">
        <ele>171.88</ele>
        <time>2014-10-11T08:32:57Z</time>
      </trkpt>
      <trkpt lat="48.78912" lon="2.08312">
        <ele>171.451</ele>
        <time>2014-10-11T08:33:01Z</time>
      </trkpt>
      <trkpt lat="48.78911" lon="2.08329">
        <ele>167.941</ele>
        <time>2014-10-11T08:33:08Z</time>
      </trkpt>
      <trkpt lat="48.78906" lon="2.08349">
        <ele>166.021</ele>
        <time>2014-10-11T08:33:15Z</time>
      </trkpt>
      <trkpt lat="48.78902" lon="2.08364">
        <ele>169.322</ele>
        <time>2014-10-11T08:33:20Z</time>
      </trkpt>
      <trkpt lat="48.78897" lon="2.08375">
        <ele>167.642</ele>
        <time>2014-10-11T08:33:24Z</time>
      </trkpt>
      <trkpt lat="48.7889" lon="2.08382">
        <ele>171.163</ele>
        <time>2014-10-11T08:33:30Z</time>
      </trkpt>
      <trkpt lat="48.78883" lon="2.08387">
        <ele>176.284</ele>
        <time>2014-10-11T08:33:36Z</time>
      </trkpt>
      <trkpt lat="48.78882" lon="2.08388">
        <ele>177.284</ele>
        <time>2014-10-11T08:33:37Z</time>
      </trkpt>
      <trkpt lat="48.78877" lon="2.08393">
        <ele>177.905</ele>
        <time>2014-10-11T08:33:40Z</time>
      </trkpt>
      <trkpt lat="48.78866" lon="2.084">
        <ele>177.363</ele>
        <time>2014-10-11T08:33:47Z</time>
      </trkpt>
      <trkpt lat="48.78859" lon="2.08404">
        <ele>175.803</ele>
        <time>2014-10-11T08:33:51Z</time>
      </trkpt>
      <trkpt lat="48.78851" lon="2.08409">
        <ele>173.141</ele>
        <time>2014-10-11T08:33:55Z</time>
      </trkpt>
      <trkpt lat="48.78843" lon="2.08418">
        <ele>171.531</ele>
        <time>2014-10-11T08:34:01Z</time>
      </trkpt>
      <trkpt lat="48.78833" lon="2.08425">
        <ele>171.942</ele>
        <time>2014-10-11T08:34:07Z</time>
      </trkpt>
      <trkpt lat="48.78823" lon="2.08433">
        <ele>173.312</ele>
        <time>2014-10-11T08:34:13Z</time>
      </trkpt>
      <trkpt lat="48.78819" lon="2.08434">
        <ele>174.092</ele>
        <time>2014-10-11T08:34:16Z</time>
      </trkpt>
      <trkpt lat="48.78818" lon="2.08437">
        <ele>174.152</ele>
        <time>2014-10-11T08:34:17Z</time>
      </trkpt>
      <trkpt lat="48.78811" lon="2.08443">
        <ele>175.382</ele>
        <time>2014-10-11T08:34:22Z</time>
      </trkpt>
      <trkpt lat="48.78802" lon="2.08453">
        <ele>177.902</ele>
        <time>2014-10-11T08:34:31Z</time>
      </trkpt>
      <trkpt lat="48.78801" lon="2.08453">
        <ele>177.052</ele>
        <time>2014-10-11T08:34:32Z</time>
      </trkpt>
      <trkpt lat="48.78793" lon="2.08455">
        <ele>177.633</ele>
        <time>2014-10-11T08:34:37Z</time>
      </trkpt>
      <trkpt lat="48.78784" lon="2.08461">
        <ele>178.823</ele>
        <time>2014-10-11T08:34:43Z</time>
      </trkpt>
      <trkpt lat="48.78779" lon="2.08465">
        <ele>179.073</ele>
        <time>2014-10-11T08:34:46Z</time>
      </trkpt>
      <trkpt lat="48.78776" lon="2.08468">
        <ele>180.563</ele>
        <time>2014-10-11T08:34:48Z</time>
      </trkpt>
      <trkpt lat="48.78772" lon="2.08471">
        <ele>180.343</ele>
        <time>2014-10-11T08:34:51Z</time>
      </trkpt>
      <trkpt lat="48.78762" lon="2.08477">
        <ele>179.042</ele>
        <time>2014-10-11T08:34:57Z</time>
      </trkpt>
      <trkpt lat="48.78757" lon="2.0848">
        <ele>180.078</ele>
        <time>2014-10-11T08:35:01Z</time>
      </trkpt>
      <trkpt lat="48.78734" lon="2.08496">
        <ele>146.392</ele>
        <time>2014-10-11T08:36:27Z</time>
      </trkpt>
      <trkpt lat="48.78738" lon="2.08502">
        <ele>144.21</ele>
        <time>2014-10-11T08:36:36Z</time>
      </trkpt>
      <trkpt lat="48.78739" lon="2.08501">
        <ele>145.382</ele>
        <time>2014-10-11T08:36:39Z</time>
      </trkpt>
      <trkpt lat="48.78743" lon="2.08507">
        <ele>157.185</ele>
        <time>2014-10-11T08:37:13Z</time>
      </trkpt>
      <trkpt lat="48.78741" lon="2.08514">
        <ele>151.287</ele>
        <time>2014-10-11T08:37:19Z</time>
      </trkpt>
      <trkpt lat="48.78738" lon="2.08514">
        <ele>154.701</ele>
        <time>2014-10-11T08:37:21Z</time>
      </trkpt>
      <trkpt lat="48.78731" lon="2.08502">
        <ele>147.718</ele>
        <time>2014-10-11T08:37:41Z</time>
      </trkpt>
      <trkpt lat="48.78737" lon="2.085">
        <ele>167.043</ele>
        <time>2014-10-11T08:37:57Z</time>
      </trkpt>
      <trkpt lat="48.78724" lon="2.08506">
        <ele>172.784</ele>
        <time>2014-10-11T08:38:58Z</time>
      </trkpt>
      <trkpt lat="48.78718" lon="2.08507">
        <ele>170.512</ele>
        <time>2014-10-11T08:39:03Z</time>
      </trkpt>
      <trkpt lat="48.78712" lon="2.08505">
        <ele>166.531</ele>
        <time>2014-10-11T08:39:07Z</time>
      </trkpt>
      <trkpt lat="48.787" lon="2.08501">
        <ele>160.52</ele>
        <time>2014-10-11T08:39:14Z</time>
      </trkpt>
      <trkpt lat="48.78693" lon="2.085">
        <ele>160.22</ele>
        <time>2014-10-11T08:39:18Z</time>
      </trkpt>
      <trkpt lat="48.78688" lon="2.08499">
        <ele>157.56</ele>
        <time>2014-10-11T08:39:21Z</time>
      </trkpt>
      <trkpt lat="48.78672" lon="2.08495">
        <ele>146.107</ele>
        <time>2014-10-11T08:39:29Z</time>
      </trkpt>
      <trkpt lat="48.7867" lon="2.08493">
        <ele>145.488</ele>
        <time>2014-10-11T08:39:30Z</time>
      </trkpt>
      <trkpt lat="48.7866" lon="2.08491">
        <ele>135.857</ele>
        <time>2014-10-11T08:39:35Z</time>
      </trkpt>
      <trkpt lat="48.78653" lon="2.08487">
        <ele>127.116</ele>
        <time>2014-10-11T08:39:39Z</time>
      </trkpt>
      <trkpt lat="48.78652" lon="2.08485">
        <ele>126.337</ele>
        <time>2014-10-11T08:39:40Z</time>
      </trkpt>
      <trkpt lat="48.78648" lon="2.08482">
        <ele>124.537</ele>
        <time>2014-10-11T08:39:42Z</time>
      </trkpt>
      <trkpt lat="48.78637" lon="2.08475">
        <ele>122.357</ele>
        <time>2014-10-11T08:39:49Z</time>
      </trkpt>
      <trkpt lat="48.78631" lon="2.08467">
        <ele>116.947</ele>
        <time>2014-10-11T08:39:54Z</time>
      </trkpt>
      <trkpt lat="48.78624" lon="2.08464">
        <ele>120.389</ele>
        <time>2014-10-11T08:39:58Z</time>
      </trkpt>
      <trkpt lat="48.78611" lon="2.08463">
        <ele>121.65</ele>
        <time>2014-10-11T08:40:04Z</time>
      </trkpt>
      <trkpt lat="48.78601" lon="2.08459">
        <ele>114.72</ele>
        <time>2014-10-11T08:40:10Z</time>
      </trkpt>
      <trkpt lat="48.78586" lon="2.08446">
        <ele>117.211</ele>
        <time>2014-10-11T08:40:18Z</time>
      </trkpt>
      <trkpt lat="48.78575" lon="2.0844">
        <ele>110.099</ele>
        <time>2014-10-11T08:40:24Z</time>
      </trkpt>
      <trkpt lat="48.78567" lon="2.0843">
        <ele>114.19</ele>
        <time>2014-10-11T08:40:31Z</time>
      </trkpt>
      <trkpt lat="48.78558" lon="2.08425">
        <ele>118.352</ele>
        <time>2014-10-11T08:40:37Z</time>
      </trkpt>
      <trkpt lat="48.78549" lon="2.08426">
        <ele>118.452</ele>
        <time>2014-10-11T08:40:43Z</time>
      </trkpt>
      <trkpt lat="48.78545" lon="2.08424">
        <ele>121.322</ele>
        <time>2014-10-11T08:40:49Z</time>
      </trkpt>
      <trkpt lat="48.78542" lon="2.08422">
        <ele>119.711</ele>
        <time>2014-10-11T08:40:52Z</time>
      </trkpt>
      <trkpt lat="48.78537" lon="2.08423">
        <ele>120.521</ele>
        <time>2014-10-11T08:40:56Z</time>
      </trkpt>
      <trkpt lat="48.7853" lon="2.08423">
        <ele>126.172</ele>
        <time>2014-10-11T08:41:02Z</time>
      </trkpt>
      <trkpt lat="48.78519" lon="2.08425">
        <ele>131.574</ele>
        <time>2014-10-11T08:41:09Z</time>
      </trkpt>
      <trkpt lat="48.78518" lon="2.08425">
        <ele>132.172</ele>
        <time>2014-10-11T08:41:10Z</time>
      </trkpt>
      <trkpt lat="48.78506" lon="2.08428">
        <ele>136.943</ele>
        <time>2014-10-11T08:41:17Z</time>
      </trkpt>
      <trkpt lat="48.785" lon="2.0843">
        <ele>142.883</ele>
        <time>2014-10-11T08:41:22Z</time>
      </trkpt>
      <trkpt lat="48.78493" lon="2.08435">
        <ele>143.682</ele>
        <time>2014-10-11T08:41:28Z</time>
      </trkpt>
      <trkpt lat="48.78485" lon="2.08439">
        <ele>146.541</ele>
        <time>2014-10-11T08:41:34Z</time>
      </trkpt>
      <trkpt lat="48.78482" lon="2.08443">
        <ele>150.302</ele>
        <time>2014-10-11T08:41:39Z</time>
      </trkpt>
      <trkpt lat="48.78481" lon="2.08444">
        <ele>151.382</ele>
        <time>2014-10-11T08:41:40Z</time>
      </trkpt>
      <trkpt lat="48.78482" lon="2.08455">
        <ele>159.924</ele>
        <time>2014-10-11T08:41:46Z</time>
      </trkpt>
      <trkpt lat="48.7848" lon="2.08462">
        <ele>162.664</ele>
        <time>2014-10-11T08:41:51Z</time>
      </trkpt>
      <trkpt lat="48.78475" lon="2.08476">
        <ele>166.822</ele>
        <time>2014-10-11T08:41:57Z</time>
      </trkpt>
      <trkpt lat="48.78472" lon="2.08491">
        <ele>165.931</ele>
        <time>2014-10-11T08:42:04Z</time>
      </trkpt>
      <trkpt lat="48.78469" lon="2.08503">
        <ele>170.091</ele>
        <time>2014-10-11T08:42:10Z</time>
      </trkpt>
      <trkpt lat="48.78467" lon="2.08514">
        <ele>168.901</ele>
        <time>2014-10-11T08:42:15Z</time>
      </trkpt>
      <trkpt lat="48.78463" lon="2.08518">
        <ele>169.101</ele>
        <time>2014-10-11T08:42:18Z</time>
      </trkpt>
      <trkpt lat="48.78462" lon="2.08533">
        <ele>174.152</ele>
        <time>2014-10-11T08:42:23Z</time>
      </trkpt>
      <trkpt lat="48.7846" lon="2.08552">
        <ele>183.412</ele>
        <time>2014-10-11T08:42:30Z</time>
      </trkpt>
      <trkpt lat="48.78455" lon="2.0856">
        <ele>183.702</ele>
        <time>2014-10-11T08:42:34Z</time>
      </trkpt>
      <trkpt lat="48.78449" lon="2.0857">
        <ele>183.521</ele>
        <time>2014-10-11T08:42:40Z</time>
      </trkpt>
      <trkpt lat="48.78444" lon="2.08584">
        <ele>184.701</ele>
        <time>2014-10-11T08:42:46Z</time>
      </trkpt>
      <trkpt lat="48.78445" lon="2.08587">
        <ele>184.751</ele>
        <time>2014-10-11T08:42:47Z</time>
      </trkpt>
      <trkpt lat="48.78441" lon="2.08597">
        <ele>187.192</ele>
        <time>2014-10-11T08:42:52Z</time>
      </trkpt>
      <trkpt lat="48.78433" lon="2.08609">
        <ele>189.612</ele>
        <time>2014-10-11T08:42:58Z</time>
      </trkpt>
      <trkpt lat="48.78429" lon="2.08621">
        <ele>193.033</ele>
        <time>2014-10-11T08:43:03Z</time>
      </trkpt>
      <trkpt lat="48.78426" lon="2.08627">
        <ele>194.693</ele>
        <time>2014-10-11T08:43:06Z</time>
      </trkpt>
      <trkpt lat="48.78424" lon="2.08628">
        <ele>194.557</ele>
        <time>2014-10-11T08:43:09Z</time>
      </trkpt>
      <trkpt lat="48.78425" lon="2.08632">
        <ele>193.851</ele>
        <time>2014-10-11T08:43:12Z</time>
      </trkpt>
      <trkpt lat="48.78422" lon="2.08649">
        <ele>192.942</ele>
        <time>2014-10-11T08:43:18Z</time>
      </trkpt>
      <trkpt lat="48.78419" lon="2.08659">
        <ele>193.762</ele>
        <time>2014-10-11T08:43:21Z</time>
      </trkpt>
      <trkpt lat="48.78418" lon="2.08663">
        <ele>193.762</ele>
        <time>2014-10-11T08:43:23Z</time>
      </trkpt>
      <trkpt lat="48.78412" lon="2.08672">
        <ele>195.572</ele>
        <time>2014-10-11T08:43:27Z</time>
      </trkpt>
      <trkpt lat="48.78408" lon="2.08684">
        <ele>191.35</ele>
        <time>2014-10-11T08:43:32Z</time>
      </trkpt>
      <trkpt lat="48.78405" lon="2.08697">
        <ele>186.83</ele>
        <time>2014-10-11T08:43:37Z</time>
      </trkpt>
      <trkpt lat="48.78404" lon="2.08701">
        <ele>186.099</ele>
        <time>2014-10-11T08:43:39Z</time>
      </trkpt>
      <trkpt lat="48.78403" lon="2.0871">
        <ele>188.961</ele>
        <time>2014-10-11T08:43:42Z</time>
      </trkpt>
      <trkpt lat="48.784" lon="2.0872">
        <ele>186.9</ele>
        <time>2014-10-11T08:43:46Z</time>
      </trkpt>
      <trkpt lat="48.78395" lon="2.08734">
        <ele>186.352</ele>
        <time>2014-10-11T08:43:52Z</time>
      </trkpt>
      <trkpt lat="48.78392" lon="2.08742">
        <ele>183.541</ele>
        <time>2014-10-11T08:43:56Z</time>
      </trkpt>
      <trkpt lat="48.78388" lon="2.08758">
        <ele>188.842</ele>
        <time>2014-10-11T08:44:02Z</time>
      </trkpt>
      <trkpt lat="48.78385" lon="2.08773">
        <ele>192.603</ele>
        <time>2014-10-11T08:44:07Z</time>
      </trkpt>
      <trkpt lat="48.78376" lon="2.08784">
        <ele>193.321</ele>
        <time>2014-10-11T08:44:13Z</time>
      </trkpt>
      <trkpt lat="48.7837" lon="2.08795">
        <ele>195.791</ele>
        <time>2014-10-11T08:44:18Z</time>
      </trkpt>
      <trkpt lat="48.78364" lon="2.08809">
        <ele>196.681</ele>
        <time>2014-10-11T08:44:25Z</time>
      </trkpt>
      <trkpt lat="48.78362" lon="2.08814">
        <ele>196.431</ele>
        <time>2014-10-11T08:44:27Z</time>
      </trkpt>
      <trkpt lat="48.78361" lon="2.08828">
        <ele>199.122</ele>
        <time>2014-10-11T08:44:32Z</time>
      </trkpt>
      <trkpt lat="48.7836" lon="2.08844">
        <ele>195.721</ele>
        <time>2014-10-11T08:44:38Z</time>
      </trkpt>
      <trkpt lat="48.78359" lon="2.08846">
        <ele>196.791</ele>
        <time>2014-10-11T08:44:39Z</time>
      </trkpt>
      <trkpt lat="48.78357" lon="2.08858">
        <ele>193.991</ele>
        <time>2014-10-11T08:44:44Z</time>
      </trkpt>
      <trkpt lat="48.78357" lon="2.08859">
        <ele>191.57</ele>
        <time>2014-10-11T08:44:45Z</time>
      </trkpt>
      <trkpt lat="48.78351" lon="2.08876">
        <ele>192.881</ele>
        <time>2014-10-11T08:44:52Z</time>
      </trkpt>
      <trkpt lat="48.78344" lon="2.08888">
        <ele>196.932</ele>
        <time>2014-10-11T08:44:58Z</time>
      </trkpt>
      <trkpt lat="48.78339" lon="2.08897">
        <ele>195.841</ele>
        <time>2014-10-11T08:45:03Z</time>
      </trkpt>
      <trkpt lat="48.78337" lon="2.08903">
        <ele>192.16</ele>
        <time>2014-10-11T08:45:08Z</time>
      </trkpt>
      <trkpt lat="48.78332" lon="2.08911">
        <ele>189.979</ele>
        <time>2014-10-11T08:45:12Z</time>
      </trkpt>
      <trkpt lat="48.78323" lon="2.08921">
        <ele>188.439</ele>
        <time>2014-10-11T08:45:19Z</time>
      </trkpt>
      <trkpt lat="48.7832" lon="2.08928">
        <ele>188.03</ele>
        <time>2014-10-11T08:45:24Z</time>
      </trkpt>
      <trkpt lat="48.78316" lon="2.08939">
        <ele>185.83</ele>
        <time>2014-10-11T08:45:30Z</time>
      </trkpt>
      <trkpt lat="48.78313" lon="2.08953">
        <ele>187.291</ele>
        <time>2014-10-11T08:45:36Z</time>
      </trkpt>
      <trkpt lat="48.78311" lon="2.08959">
        <ele>189.302</ele>
        <time>2014-10-11T08:45:39Z</time>
      </trkpt>
      <trkpt lat="48.78306" lon="2.08973">
        <ele>192.782</ele>
        <time>2014-10-11T08:45:45Z</time>
      </trkpt>
      <trkpt lat="48.78301" lon="2.08985">
        <ele>194.243</ele>
        <time>2014-10-11T08:45:50Z</time>
      </trkpt>
      <trkpt lat="48.783" lon="2.08998">
        <ele>194.085</ele>
        <time>2014-10-11T08:45:55Z</time>
      </trkpt>
      <trkpt lat="48.78294" lon="2.09014">
        <ele>193.992</ele>
        <time>2014-10-11T08:46:01Z</time>
      </trkpt>
      <trkpt lat="48.7829" lon="2.09026">
        <ele>192.722</ele>
        <time>2014-10-11T08:46:07Z</time>
      </trkpt>
      <trkpt lat="48.78284" lon="2.09044">
        <ele>192.843</ele>
        <time>2014-10-11T08:46:13Z</time>
      </trkpt>
      <trkpt lat="48.7828" lon="2.09056">
        <ele>188.21</ele>
        <time>2014-10-11T08:46:19Z</time>
      </trkpt>
      <trkpt lat="48.78275" lon="2.09063">
        <ele>190.25</ele>
        <time>2014-10-11T08:46:23Z</time>
      </trkpt>
      <trkpt lat="48.78271" lon="2.09078">
        <ele>189.44</ele>
        <time>2014-10-11T08:46:29Z</time>
      </trkpt>
      <trkpt lat="48.78267" lon="2.09091">
        <ele>184.409</ele>
        <time>2014-10-11T08:46:35Z</time>
      </trkpt>
      <trkpt lat="48.78265" lon="2.09101">
        <ele>181.088</ele>
        <time>2014-10-11T08:46:40Z</time>
      </trkpt>
      <trkpt lat="48.78263" lon="2.09106">
        <ele>179.178</ele>
        <time>2014-10-11T08:46:42Z</time>
      </trkpt>
      <trkpt lat="48.7825" lon="2.09109">
        <ele>172.388</ele>
        <time>2014-10-11T08:46:50Z</time>
      </trkpt>
      <trkpt lat="48.78239" lon="2.09109">
        <ele>174.329</ele>
        <time>2014-10-11T08:46:55Z</time>
      </trkpt>
      <trkpt lat="48.78235" lon="2.09108">
        <ele>176.621</ele>
        <time>2014-10-11T08:46:58Z</time>
      </trkpt>
      <trkpt lat="48.78225" lon="2.09108">
        <ele>176.271</ele>
        <time>2014-10-11T08:47:04Z</time>
      </trkpt>
      <trkpt lat="48.78224" lon="2.09108">
        <ele>179.321</ele>
        <time>2014-10-11T08:47:06Z</time>
      </trkpt>
      <trkpt lat="48.78222" lon="2.0911">
        <ele>180.901</ele>
        <time>2014-10-11T08:47:08Z</time>
      </trkpt>
      <trkpt lat="48.78215" lon="2.09114">
        <ele>183.081</ele>
        <time>2014-10-11T08:47:15Z</time>
      </trkpt>
      <trkpt lat="48.78207" lon="2.09116">
        <ele>184.391</ele>
        <time>2014-10-11T08:47:20Z</time>
      </trkpt>
      <trkpt lat="48.78201" lon="2.09118">
        <ele>187.782</ele>
        <time>2014-10-11T08:47:25Z</time>
      </trkpt>
      <trkpt lat="48.78198" lon="2.09119">
        <ele>188.201</ele>
        <time>2014-10-11T08:47:28Z</time>
      </trkpt>
      <trkpt lat="48.78184" lon="2.09125">
        <ele>190.561</ele>
        <time>2014-10-11T08:47:36Z</time>
      </trkpt>
      <trkpt lat="48.78177" lon="2.0913">
        <ele>188.441</ele>
        <time>2014-10-11T08:47:40Z</time>
      </trkpt>
      <trkpt lat="48.78165" lon="2.09141">
        <ele>175.567</ele>
        <time>2014-10-11T08:47:47Z</time>
      </trkpt>
      <trkpt lat="48.7816" lon="2.09144">
        <ele>175.759</ele>
        <time>2014-10-11T08:47:52Z</time>
      </trkpt>
      <trkpt lat="48.78157" lon="2.09146">
        <ele>173.829</ele>
        <time>2014-10-11T08:47:54Z</time>
      </trkpt>
      <trkpt lat="48.78146" lon="2.09148">
        <ele>173.719</ele>
        <time>2014-10-11T08:48:00Z</time>
      </trkpt>
      <trkpt lat="48.78144" lon="2.0915">
        <ele>173.629</ele>
        <time>2014-10-11T08:48:01Z</time>
      </trkpt>
      <trkpt lat="48.78137" lon="2.09162">
        <ele>172.61</ele>
        <time>2014-10-11T08:48:06Z</time>
      </trkpt>
      <trkpt lat="48.78124" lon="2.09179">
        <ele>170.82</ele>
        <time>2014-10-11T08:48:12Z</time>
      </trkpt>
      <trkpt lat="48.78117" lon="2.09192">
        <ele>169.079</ele>
        <time>2014-10-11T08:48:18Z</time>
      </trkpt>
      <trkpt lat="48.78113" lon="2.09207">
        <ele>161.428</ele>
        <time>2014-10-11T08:48:24Z</time>
      </trkpt>
      <trkpt lat="48.78111" lon="2.09219">
        <ele>155.837</ele>
        <time>2014-10-11T08:48:30Z</time>
      </trkpt>
      <trkpt lat="48.7811" lon="2.0922">
        <ele>155.547</ele>
        <time>2014-10-11T08:48:31Z</time>
      </trkpt>
      <trkpt lat="48.78107" lon="2.09231">
        <ele>152.168</ele>
        <time>2014-10-11T08:48:37Z</time>
      </trkpt>
      <trkpt lat="48.78106" lon="2.09234">
        <ele>151.907</ele>
        <time>2014-10-11T08:48:38Z</time>
      </trkpt>
      <trkpt lat="48.78106" lon="2.09248">
        <ele>147.817</ele>
        <time>2014-10-11T08:48:43Z</time>
      </trkpt>
      <trkpt lat="48.78102" lon="2.09259">
        <ele>140.186</ele>
        <time>2014-10-11T08:48:49Z</time>
      </trkpt>
      <trkpt lat="48.78099" lon="2.09268">
        <ele>137.286</ele>
        <time>2014-10-11T08:48:53Z</time>
      </trkpt>
      <trkpt lat="48.78094" lon="2.09289">
        <ele>141.129</ele>
        <time>2014-10-11T08:49:00Z</time>
      </trkpt>
      <trkpt lat="48.78092" lon="2.09297">
        <ele>141.679</ele>
        <time>2014-10-11T08:49:02Z</time>
      </trkpt>
      <trkpt lat="48.78092" lon="2.09308">
        <ele>138.068</ele>
        <time>2014-10-11T08:49:07Z</time>
      </trkpt>
      <trkpt lat="48.78086" lon="2.09319">
        <ele>138.299</ele>
        <time>2014-10-11T08:49:12Z</time>
      </trkpt>
      <trkpt lat="48.78085" lon="2.09321">
        <ele>137.869</ele>
        <time>2014-10-11T08:49:13Z</time>
      </trkpt>
      <trkpt lat="48.78083" lon="2.09334">
        <ele>135.489</ele>
        <time>2014-10-11T08:49:19Z</time>
      </trkpt>
      <trkpt lat="48.78083" lon="2.09334">
        <ele>135.429</ele>
        <time>2014-10-11T08:49:24Z</time>
      </trkpt>
      <trkpt lat="48.78085" lon="2.0934">
        <ele>143.877</ele>
        <time>2014-10-11T08:49:41Z</time>
      </trkpt>
      <trkpt lat="48.78081" lon="2.09346">
        <ele>146.43</ele>
        <time>2014-10-11T08:49:45Z</time>
      </trkpt>
      <trkpt lat="48.78081" lon="2.09349">
        <ele>145.702</ele>
        <time>2014-10-11T08:49:48Z</time>
      </trkpt>
      <trkpt lat="48.78082" lon="2.09355">
        <ele>145.43</ele>
        <time>2014-10-11T08:49:51Z</time>
      </trkpt>
      <trkpt lat="48.78081" lon="2.09366">
        <ele>147.741</ele>
        <time>2014-10-11T08:49:55Z</time>
      </trkpt>
      <trkpt lat="48.78079" lon="2.0938">
        <ele>148.4</ele>
        <time>2014-10-11T08:50:01Z</time>
      </trkpt>
      <trkpt lat="48.78079" lon="2.09383">
        <ele>148.73</ele>
        <time>2014-10-11T08:50:02Z</time>
      </trkpt>
      <trkpt lat="48.78077" lon="2.09386">
        <ele>146.579</ele>
        <time>2014-10-11T08:50:04Z</time>
      </trkpt>
      <trkpt lat="48.78079" lon="2.094">
        <ele>141.228</ele>
        <time>2014-10-11T08:50:10Z</time>
      </trkpt>
      <trkpt lat="48.78081" lon="2.09419">
        <ele>134.436</ele>
        <time>2014-10-11T08:50:17Z</time>
      </trkpt>
      <trkpt lat="48.78081" lon="2.09422">
        <ele>132.967</ele>
        <time>2014-10-11T08:50:18Z</time>
      </trkpt>
      <trkpt lat="48.7808" lon="2.09437">
        <ele>126.797</ele>
        <time>2014-10-11T08:50:24Z</time>
      </trkpt>
      <trkpt lat="48.78079" lon="2.09445">
        <ele>120.855</ele>
        <time>2014-10-11T08:50:27Z</time>
      </trkpt>
      <trkpt lat="48.78078" lon="2.09451">
        <ele>127.608</ele>
        <time>2014-10-11T08:50:30Z</time>
      </trkpt>
      <trkpt lat="48.78079" lon="2.09461">
        <ele>127.519</ele>
        <time>2014-10-11T08:50:34Z</time>
      </trkpt>
      <trkpt lat="48.78076" lon="2.09482">
        <ele>129.511</ele>
        <time>2014-10-11T08:50:42Z</time>
      </trkpt>
      <trkpt lat="48.78074" lon="2.09495">
        <ele>135.441</ele>
        <time>2014-10-11T08:50:47Z</time>
      </trkpt>
      <trkpt lat="48.78071" lon="2.09507">
        <ele>137.1</ele>
        <time>2014-10-11T08:50:53Z</time>
      </trkpt>
      <trkpt lat="48.78071" lon="2.09516">
        <ele>137.67</ele>
        <time>2014-10-11T08:50:57Z</time>
      </trkpt>
      <trkpt lat="48.78071" lon="2.09526">
        <ele>138.611</ele>
        <time>2014-10-11T08:51:02Z</time>
      </trkpt>
      <trkpt lat="48.78074" lon="2.09539">
        <ele>138.57</ele>
        <time>2014-10-11T08:51:07Z</time>
      </trkpt>
      <trkpt lat="48.78075" lon="2.09548">
        <ele>136.569</ele>
        <time>2014-10-11T08:51:10Z</time>
      </trkpt>
      <trkpt lat="48.78071" lon="2.09559">
        <ele>135.969</ele>
        <time>2014-10-11T08:51:15Z</time>
      </trkpt>
      <trkpt lat="48.78062" lon="2.09563">
        <ele>137.459</ele>
        <time>2014-10-11T08:51:21Z</time>
      </trkpt>
      <trkpt lat="48.78049" lon="2.09567">
        <ele>129.818</ele>
        <time>2014-10-11T08:51:28Z</time>
      </trkpt>
      <trkpt lat="48.78046" lon="2.09567">
        <ele>128.868</ele>
        <time>2014-10-11T08:51:29Z</time>
      </trkpt>
      <trkpt lat="48.78037" lon="2.09567">
        <ele>131.47</ele>
        <time>2014-10-11T08:51:35Z</time>
      </trkpt>
      <trkpt lat="48.78037" lon="2.09568">
        <ele>132.61</ele>
        <time>2014-10-11T08:51:36Z</time>
      </trkpt>
      <trkpt lat="48.78035" lon="2.0958">
        <ele>127.409</ele>
        <time>2014-10-11T08:51:43Z</time>
      </trkpt>
      <trkpt lat="48.78037" lon="2.09591">
        <ele>124.099</ele>
        <time>2014-10-11T08:51:49Z</time>
      </trkpt>
      <trkpt lat="48.78039" lon="2.09594">
        <ele>124.679</ele>
        <time>2014-10-11T08:51:53Z</time>
      </trkpt>
      <trkpt lat="48.78028" lon="2.09609">
        <ele>120.668</ele>
        <time>2014-10-11T08:52:01Z</time>
      </trkpt>
      <trkpt lat="48.78023" lon="2.09621">
        <ele>119.208</ele>
        <time>2014-10-11T08:52:03Z</time>
      </trkpt>
      <trkpt lat="48.78018" lon="2.09641">
        <ele>111.636</ele>
        <time>2014-10-11T08:52:07Z</time>
      </trkpt>
      <trkpt lat="48.78034" lon="2.0965">
        <ele>112.136</ele>
        <time>2014-10-11T08:52:12Z</time>
      </trkpt>
      <trkpt lat="48.78037" lon="2.09654">
        <ele>114.577</ele>
        <time>2014-10-11T08:52:14Z</time>
      </trkpt>
      <trkpt lat="48.78039" lon="2.09659">
        <ele>115.088</ele>
        <time>2014-10-11T08:52:16Z</time>
      </trkpt>
      <trkpt lat="48.78046" lon="2.09669">
        <ele>111.298</ele>
        <time>2014-10-11T08:52:21Z</time>
      </trkpt>
      <trkpt lat="48.78051" lon="2.09676">
        <ele>106.487</ele>
        <time>2014-10-11T08:52:25Z</time>
      </trkpt>
      <trkpt lat="48.78055" lon="2.09685">
        <ele>103.477</ele>
        <time>2014-10-11T08:52:30Z</time>
      </trkpt>
      <trkpt lat="48.78059" lon="2.09693">
        <ele>106.589</ele>
        <time>2014-10-11T08:52:34Z</time>
      </trkpt>
      <trkpt lat="48.78059" lon="2.09696">
        <ele>108.38</ele>
        <time>2014-10-11T08:52:35Z</time>
      </trkpt>
      <trkpt lat="48.7806" lon="2.09708">
        <ele>117.135</ele>
        <time>2014-10-11T08:52:39Z</time>
      </trkpt>
      <trkpt lat="48.78062" lon="2.09713">
        <ele>122.113</ele>
        <time>2014-10-11T08:52:41Z</time>
      </trkpt>
      <trkpt lat="48.78067" lon="2.09727">
        <ele>130.585</ele>
        <time>2014-10-11T08:52:46Z</time>
      </trkpt>
      <trkpt lat="48.78068" lon="2.09735">
        <ele>136.219</ele>
        <time>2014-10-11T08:52:49Z</time>
      </trkpt>
      <trkpt lat="48.78071" lon="2.09751">
        <ele>145.874</ele>
        <time>2014-10-11T08:52:56Z</time>
      </trkpt>
      <trkpt lat="48.78073" lon="2.09762">
        <ele>137.35</ele>
        <time>2014-10-11T08:53:02Z</time>
      </trkpt>
      <trkpt lat="48.78073" lon="2.09779">
        <ele>137.679</ele>
        <time>2014-10-11T08:53:08Z</time>
      </trkpt>
      <trkpt lat="48.78074" lon="2.09794">
        <ele>132.867</ele>
        <time>2014-10-11T08:53:13Z</time>
      </trkpt>
      <trkpt lat="48.78075" lon="2.09799">
        <ele>131.407</ele>
        <time>2014-10-11T08:53:15Z</time>
      </trkpt>
      <trkpt lat="48.78076" lon="2.09813">
        <ele>125.755</ele>
        <time>2014-10-11T08:53:20Z</time>
      </trkpt>
      <trkpt lat="48.78069" lon="2.09821">
        <ele>128.287</ele>
        <time>2014-10-11T08:53:25Z</time>
      </trkpt>
      <trkpt lat="48.78064" lon="2.09831">
        <ele>132.839</ele>
        <time>2014-10-11T08:53:30Z</time>
      </trkpt>
      <trkpt lat="48.78062" lon="2.09839">
        <ele>136.251</ele>
        <time>2014-10-11T08:53:34Z</time>
      </trkpt>
      <trkpt lat="48.78058" lon="2.09852">
        <ele>142.283</ele>
        <time>2014-10-11T08:53:40Z</time>
      </trkpt>
      <trkpt lat="48.78052" lon="2.09861">
        <ele>141.281</ele>
        <time>2014-10-11T08:53:45Z</time>
      </trkpt>
      <trkpt lat="48.78047" lon="2.09871">
        <ele>141.78</ele>
        <time>2014-10-11T08:53:49Z</time>
      </trkpt>
      <trkpt lat="48.78041" lon="2.09878">
        <ele>144.571</ele>
        <time>2014-10-11T08:53:53Z</time>
      </trkpt>
      <trkpt lat="48.78034" lon="2.09885">
        <ele>142.389</ele>
        <time>2014-10-11T08:53:58Z</time>
      </trkpt>
      <trkpt lat="48.78032" lon="2.09891">
        <ele>134.875</ele>
        <time>2014-10-11T08:54:00Z</time>
      </trkpt>
      <trkpt lat="48.78029" lon="2.09893">
        <ele>135.036</ele>
        <time>2014-10-11T08:54:02Z</time>
      </trkpt>
      <trkpt lat="48.7802" lon="2.09907">
        <ele>125.414</ele>
        <time>2014-10-11T08:54:08Z</time>
      </trkpt>
      <trkpt lat="48.78018" lon="2.09909">
        <ele>124.414</ele>
        <time>2014-10-11T08:54:09Z</time>
      </trkpt>
      <trkpt lat="48.78006" lon="2.09914">
        <ele>128.908</ele>
        <time>2014-10-11T08:54:15Z</time>
      </trkpt>
      <trkpt lat="48.77999" lon="2.09914">
        <ele>128.599</ele>
        <time>2014-10-11T08:54:18Z</time>
      </trkpt>
      <trkpt lat="48.77996" lon="2.09917">
        <ele>123.877</ele>
        <time>2014-10-11T08:54:20Z</time>
      </trkpt>
      <trkpt lat="48.77987" lon="2.09916">
        <ele>121.326</ele>
        <time>2014-10-11T08:54:25Z</time>
      </trkpt>
      <trkpt lat="48.77984" lon="2.09918">
        <ele>119.576</ele>
        <time>2014-10-11T08:54:29Z</time>
      </trkpt>
      <trkpt lat="48.7798" lon="2.09922">
        <ele>118.036</ele>
        <time>2014-10-11T08:54:35Z</time>
      </trkpt>
      <trkpt lat="48.77969" lon="2.09924">
        <ele>114.215</ele>
        <time>2014-10-11T08:54:40Z</time>
      </trkpt>
      <trkpt lat="48.77965" lon="2.09926">
        <ele>114.486</ele>
        <time>2014-10-11T08:54:42Z</time>
      </trkpt>
      <trkpt lat="48.77959" lon="2.09925">
        <ele>113.797</ele>
        <time>2014-10-11T08:54:45Z</time>
      </trkpt>
      <trkpt lat="48.77951" lon="2.09921">
        <ele>113.487</ele>
        <time>2014-10-11T08:54:50Z</time>
      </trkpt>
      <trkpt lat="48.77945" lon="2.09916">
        <ele>115.048</ele>
        <time>2014-10-11T08:54:53Z</time>
      </trkpt>
      <trkpt lat="48.77937" lon="2.09916">
        <ele>112.687</ele>
        <time>2014-10-11T08:54:58Z</time>
      </trkpt>
      <trkpt lat="48.77935" lon="2.09911">
        <ele>113.948</ele>
        <time>2014-10-11T08:55:01Z</time>
      </trkpt>
      <trkpt lat="48.77927" lon="2.09904">
        <ele>118.839</ele>
        <time>2014-10-11T08:55:06Z</time>
      </trkpt>
      <trkpt lat="48.77914" lon="2.09894">
        <ele>116.226</ele>
        <time>2014-10-11T08:55:13Z</time>
      </trkpt>
      <trkpt lat="48.77902" lon="2.09881">
        <ele>115.166</ele>
        <time>2014-10-11T08:55:19Z</time>
      </trkpt>
      <trkpt lat="48.77899" lon="2.09878">
        <ele>115.507</ele>
        <time>2014-10-11T08:55:21Z</time>
      </trkpt>
      <trkpt lat="48.77894" lon="2.09879">
        <ele>112.886</ele>
        <time>2014-10-11T08:55:23Z</time>
      </trkpt>
      <trkpt lat="48.77885" lon="2.09879">
        <ele>112.167</ele>
        <time>2014-10-11T08:55:28Z</time>
      </trkpt>
      <trkpt lat="48.77879" lon="2.09873">
        <ele>115.138</ele>
        <time>2014-10-11T08:55:33Z</time>
      </trkpt>
      <trkpt lat="48.77874" lon="2.0987">
        <ele>120.95</ele>
        <time>2014-10-11T08:55:38Z</time>
      </trkpt>
      <trkpt lat="48.77864" lon="2.0986">
        <ele>127.852</ele>
        <time>2014-10-11T08:55:44Z</time>
      </trkpt>
      <trkpt lat="48.77861" lon="2.0986">
        <ele>129.952</ele>
        <time>2014-10-11T08:55:47Z</time>
      </trkpt>
      <trkpt lat="48.7786" lon="2.09863">
        <ele>131.042</ele>
        <time>2014-10-11T08:55:50Z</time>
      </trkpt>
      <trkpt lat="48.7786" lon="2.09866">
        <ele>128.33</ele>
        <time>2014-10-11T08:55:52Z</time>
      </trkpt>
      <trkpt lat="48.77853" lon="2.0987">
        <ele>126.259</ele>
        <time>2014-10-11T08:55:57Z</time>
      </trkpt>
      <trkpt lat="48.77849" lon="2.09877">
        <ele>122.888</ele>
        <time>2014-10-11T08:56:01Z</time>
      </trkpt>
      <trkpt lat="48.77846" lon="2.09882">
        <ele>122.068</ele>
        <time>2014-10-11T08:56:04Z</time>
      </trkpt>
      <trkpt lat="48.77843" lon="2.09891">
        <ele>123.269</ele>
        <time>2014-10-11T08:56:08Z</time>
      </trkpt>
      <trkpt lat="48.77839" lon="2.09897">
        <ele>123.909</ele>
        <time>2014-10-11T08:56:11Z</time>
      </trkpt>
      <trkpt lat="48.77833" lon="2.09908">
        <ele>123.908</ele>
        <time>2014-10-11T08:56:17Z</time>
      </trkpt>
      <trkpt lat="48.77831" lon="2.09911">
        <ele>126.52</ele>
        <time>2014-10-11T08:56:19Z</time>
      </trkpt>
      <trkpt lat="48.77829" lon="2.09922">
        <ele>128.429</ele>
        <time>2014-10-11T08:56:23Z</time>
      </trkpt>
      <trkpt lat="48.77827" lon="2.09927">
        <ele>128.599</ele>
        <time>2014-10-11T08:56:26Z</time>
      </trkpt>
      <trkpt lat="48.77824" lon="2.0994">
        <ele>127.738</ele>
        <time>2014-10-11T08:56:31Z</time>
      </trkpt>
      <trkpt lat="48.7782" lon="2.09949">
        <ele>129.368</ele>
        <time>2014-10-11T08:56:36Z</time>
      </trkpt>
      <trkpt lat="48.7782" lon="2.09955">
        <ele>130.719</ele>
        <time>2014-10-11T08:56:39Z</time>
      </trkpt>
      <trkpt lat="48.77819" lon="2.09973">
        <ele>132.359</ele>
        <time>2014-10-11T08:56:45Z</time>
      </trkpt>
      <trkpt lat="48.77819" lon="2.09977">
        <ele>133.77</ele>
        <time>2014-10-11T08:56:47Z</time>
      </trkpt>
      <trkpt lat="48.77818" lon="2.09985">
        <ele>136.51</ele>
        <time>2014-10-11T08:56:51Z</time>
      </trkpt>
      <trkpt lat="48.77811" lon="2.09998">
        <ele>141.272</ele>
        <time>2014-10-11T08:56:56Z</time>
      </trkpt>
      <trkpt lat="48.7781" lon="2.10001">
        <ele>141.801</ele>
        <time>2014-10-11T08:56:57Z</time>
      </trkpt>
      <trkpt lat="48.77806" lon="2.10016">
        <ele>132.837</ele>
        <time>2014-10-11T08:57:03Z</time>
      </trkpt>
      <trkpt lat="48.77798" lon="2.10023">
        <ele>133.638</ele>
        <time>2014-10-11T08:57:08Z</time>
      </trkpt>
      <trkpt lat="48.77789" lon="2.10029">
        <ele>131.897</ele>
        <time>2014-10-11T08:57:12Z</time>
      </trkpt>
      <trkpt lat="48.77787" lon="2.1003">
        <ele>129.116</ele>
        <time>2014-10-11T08:57:13Z</time>
      </trkpt>
      <trkpt lat="48.7778" lon="2.1003">
        <ele>125.355</ele>
        <time>2014-10-11T08:57:18Z</time>
      </trkpt>
      <trkpt lat="48.77764" lon="2.10027">
        <ele>110.661</ele>
        <time>2014-10-11T08:57:26Z</time>
      </trkpt>
      <trkpt lat="48.77757" lon="2.10023">
        <ele>99.781</ele>
        <time>2014-10-11T08:57:32Z</time>
      </trkpt>
      <trkpt lat="48.77751" lon="2.1002">
        <ele>101.373</ele>
        <time>2014-10-11T08:57:36Z</time>
      </trkpt>
      <trkpt lat="48.77739" lon="2.10014">
        <ele>102.035</ele>
        <time>2014-10-11T08:57:43Z</time>
      </trkpt>
      <trkpt lat="48.77729" lon="2.10013">
        <ele>105.057</ele>
        <time>2014-10-11T08:57:48Z</time>
      </trkpt>
      <trkpt lat="48.77718" lon="2.10016">
        <ele>103.625</ele>
        <time>2014-10-11T08:57:54Z</time>
      </trkpt>
      <trkpt lat="48.77713" lon="2.10014">
        <ele>106.106</ele>
        <time>2014-10-11T08:57:58Z</time>
      </trkpt>
      <trkpt lat="48.77709" lon="2.10017">
        <ele>102.545</ele>
        <time>2014-10-11T08:58:02Z</time>
      </trkpt>
      <trkpt lat="48.77695" lon="2.10018">
        <ele>102.436</ele>
        <time>2014-10-11T08:58:08Z</time>
      </trkpt>
      <trkpt lat="48.77683" lon="2.1002">
        <ele>103.387</ele>
        <time>2014-10-11T08:58:15Z</time>
      </trkpt>
      <trkpt lat="48.77682" lon="2.10021">
        <ele>103.227</ele>
        <time>2014-10-11T08:58:16Z</time>
      </trkpt>
      <trkpt lat="48.7767" lon="2.10019">
        <ele>108.889</ele>
        <time>2014-10-11T08:58:22Z</time>
      </trkpt>
      <trkpt lat="48.77665" lon="2.10019">
        <ele>110.859</ele>
        <time>2014-10-11T08:58:25Z</time>
      </trkpt>
      <trkpt lat="48.77655" lon="2.10026">
        <ele>112.538</ele>
        <time>2014-10-11T08:58:31Z</time>
      </trkpt>
      <trkpt lat="48.77649" lon="2.10032">
        <ele>117.139</ele>
        <time>2014-10-11T08:58:37Z</time>
      </trkpt>
      <trkpt lat="48.77645" lon="2.1004">
        <ele>118.378</ele>
        <time>2014-10-11T08:58:41Z</time>
      </trkpt>
      <trkpt lat="48.77643" lon="2.1005">
        <ele>125.76</ele>
        <time>2014-10-11T08:58:47Z</time>
      </trkpt>
      <trkpt lat="48.77641" lon="2.10054">
        <ele>126.5</ele>
        <time>2014-10-11T08:58:49Z</time>
      </trkpt>
      <trkpt lat="48.77637" lon="2.10069">
        <ele>130.421</ele>
        <time>2014-10-11T08:58:55Z</time>
      </trkpt>
      <trkpt lat="48.77633" lon="2.1008">
        <ele>132.708</ele>
        <time>2014-10-11T08:59:00Z</time>
      </trkpt>
      <trkpt lat="48.77633" lon="2.10093">
        <ele>133.896</ele>
        <time>2014-10-11T08:59:04Z</time>
      </trkpt>
      <trkpt lat="48.77628" lon="2.101">
        <ele>133.913</ele>
        <time>2014-10-11T08:59:09Z</time>
      </trkpt>
      <trkpt lat="48.77627" lon="2.10104">
        <ele>132.944</ele>
        <time>2014-10-11T08:59:11Z</time>
      </trkpt>
      <trkpt lat="48.77623" lon="2.10116">
        <ele>129.208</ele>
        <time>2014-10-11T08:59:17Z</time>
      </trkpt>
      <trkpt lat="48.77621" lon="2.1013">
        <ele>126.944</ele>
        <time>2014-10-11T08:59:22Z</time>
      </trkpt>
      <trkpt lat="48.77621" lon="2.10133">
        <ele>127.218</ele>
        <time>2014-10-11T08:59:23Z</time>
      </trkpt>
      <trkpt lat="48.77619" lon="2.10156">
        <ele>124.872</ele>
        <time>2014-10-11T08:59:32Z</time>
      </trkpt>
      <trkpt lat="48.77616" lon="2.10164">
        <ele>126.085</ele>
        <time>2014-10-11T08:59:36Z</time>
      </trkpt>
      <trkpt lat="48.77618" lon="2.10183">
        <ele>117.296</ele>
        <time>2014-10-11T08:59:42Z</time>
      </trkpt>
      <trkpt lat="48.77617" lon="2.10195">
        <ele>121.331</ele>
        <time>2014-10-11T08:59:47Z</time>
      </trkpt>
      <trkpt lat="48.77616" lon="2.10197">
        <ele>130.274</ele>
        <time>2014-10-11T08:59:52Z</time>
      </trkpt>
      <trkpt lat="48.77613" lon="2.10197">
        <ele>142.114</ele>
        <time>2014-10-11T08:59:56Z</time>
      </trkpt>
      <trkpt lat="48.77609" lon="2.10201">
        <ele>154.375</ele>
        <time>2014-10-11T09:00:01Z</time>
      </trkpt>
      <trkpt lat="48.77609" lon="2.10204">
        <ele>162.188</ele>
        <time>2014-10-11T09:00:05Z</time>
      </trkpt>
      <trkpt lat="48.77608" lon="2.10213">
        <ele>171.493</ele>
        <time>2014-10-11T09:00:11Z</time>
      </trkpt>
      <trkpt lat="48.7761" lon="2.10224">
        <ele>175.519</ele>
        <time>2014-10-11T09:00:16Z</time>
      </trkpt>
      <trkpt lat="48.7761" lon="2.10226">
        <ele>177.208</ele>
        <time>2014-10-11T09:00:17Z</time>
      </trkpt>
      <trkpt lat="48.77608" lon="2.10232">
        <ele>180.462</ele>
        <time>2014-10-11T09:00:21Z</time>
      </trkpt>
      <trkpt lat="48.77604" lon="2.10257">
        <ele>195.263</ele>
        <time>2014-10-11T09:00:36Z</time>
      </trkpt>
      <trkpt lat="48.77604" lon="2.10265">
        <ele>196.963</ele>
        <time>2014-10-11T09:00:39Z</time>
      </trkpt>
      <trkpt lat="48.77607" lon="2.10293">
        <ele>193.671</ele>
        <time>2014-10-11T09:00:48Z</time>
      </trkpt>
      <trkpt lat="48.77608" lon="2.10301">
        <ele>189.698</ele>
        <time>2014-10-11T09:00:51Z</time>
      </trkpt>
      <trkpt lat="48.77606" lon="2.10319">
        <ele>197.441</ele>
        <time>2014-10-11T09:00:58Z</time>
      </trkpt>
      <trkpt lat="48.77605" lon="2.10331">
        <ele>202.776</ele>
        <time>2014-10-11T09:01:02Z</time>
      </trkpt>
      <trkpt lat="48.77605" lon="2.10333">
        <ele>201.672</ele>
        <time>2014-10-11T09:01:03Z</time>
      </trkpt>
      <trkpt lat="48.77601" lon="2.10349">
        <ele>201.191</ele>
        <time>2014-10-11T09:01:10Z</time>
      </trkpt>
      <trkpt lat="48.77601" lon="2.10352">
        <ele>199.94</ele>
        <time>2014-10-11T09:01:11Z</time>
      </trkpt>
      <trkpt lat="48.77595" lon="2.10371">
        <ele>200.351</ele>
        <time>2014-10-11T09:01:19Z</time>
      </trkpt>
      <trkpt lat="48.77593" lon="2.10386">
        <ele>199.47</ele>
        <time>2014-10-11T09:01:25Z</time>
      </trkpt>
      <trkpt lat="48.77592" lon="2.10401">
        <ele>197.379</ele>
        <time>2014-10-11T09:01:30Z</time>
      </trkpt>
      <trkpt lat="48.7759" lon="2.10411">
        <ele>198.279</ele>
        <time>2014-10-11T09:01:35Z</time>
      </trkpt>
      <trkpt lat="48.77589" lon="2.10426">
        <ele>198.459</ele>
        <time>2014-10-11T09:01:39Z</time>
      </trkpt>
      <trkpt lat="48.77589" lon="2.1044">
        <ele>199.42</ele>
        <time>2014-10-11T09:01:44Z</time>
      </trkpt>
      <trkpt lat="48.77584" lon="2.10452">
        <ele>197.418</ele>
        <time>2014-10-11T09:01:49Z</time>
      </trkpt>
      <trkpt lat="48.77582" lon="2.10472">
        <ele>192.518</ele>
        <time>2014-10-11T09:01:55Z</time>
      </trkpt>
      <trkpt lat="48.77581" lon="2.10475">
        <ele>191.878</ele>
        <time>2014-10-11T09:01:56Z</time>
      </trkpt>
      <trkpt lat="48.77577" lon="2.10491">
        <ele>190.278</ele>
        <time>2014-10-11T09:02:02Z</time>
      </trkpt>
      <trkpt lat="48.77576" lon="2.10506">
        <ele>182.725</ele>
        <time>2014-10-11T09:02:08Z</time>
      </trkpt>
      <trkpt lat="48.77575" lon="2.10509">
        <ele>181.675</ele>
        <time>2014-10-11T09:02:09Z</time>
      </trkpt>
      <trkpt lat="48.77574" lon="2.10515">
        <ele>180.245</ele>
        <time>2014-10-11T09:02:11Z</time>
      </trkpt>
      <trkpt lat="48.77571" lon="2.10525">
        <ele>177.995</ele>
        <time>2014-10-11T09:02:15Z</time>
      </trkpt>
      <trkpt lat="48.77567" lon="2.10539">
        <ele>178.116</ele>
        <time>2014-10-11T09:02:19Z</time>
      </trkpt>
      <trkpt lat="48.77563" lon="2.1055">
        <ele>179.037</ele>
        <time>2014-10-11T09:02:24Z</time>
      </trkpt>
      <trkpt lat="48.77559" lon="2.10562">
        <ele>176.896</ele>
        <time>2014-10-11T09:02:29Z</time>
      </trkpt>
      <trkpt lat="48.77552" lon="2.10576">
        <ele>175.226</ele>
        <time>2014-10-11T09:02:35Z</time>
      </trkpt>
      <trkpt lat="48.77547" lon="2.10586">
        <ele>174.297</ele>
        <time>2014-10-11T09:02:40Z</time>
      </trkpt>
      <trkpt lat="48.77545" lon="2.10594">
        <ele>174.948</ele>
        <time>2014-10-11T09:02:44Z</time>
      </trkpt>
      <trkpt lat="48.77539" lon="2.10609">
        <ele>175.497</ele>
        <time>2014-10-11T09:02:51Z</time>
      </trkpt>
      <trkpt lat="48.77532" lon="2.1062">
        <ele>171.235</ele>
        <time>2014-10-11T09:02:57Z</time>
      </trkpt>
      <trkpt lat="48.7753" lon="2.1063">
        <ele>167.615</ele>
        <time>2014-10-11T09:03:01Z</time>
      </trkpt>
      <trkpt lat="48.77529" lon="2.10639">
        <ele>163.735</ele>
        <time>2014-10-11T09:03:05Z</time>
      </trkpt>
      <trkpt lat="48.77529" lon="2.10643">
        <ele>163.445</ele>
        <time>2014-10-11T09:03:07Z</time>
      </trkpt>
      <trkpt lat="48.77529" lon="2.10654">
        <ele>165.237</ele>
        <time>2014-10-11T09:03:12Z</time>
      </trkpt>
      <trkpt lat="48.77531" lon="2.10669">
        <ele>171.98</ele>
        <time>2014-10-11T09:03:19Z</time>
      </trkpt>
      <trkpt lat="48.77532" lon="2.10675">
        <ele>174.699</ele>
        <time>2014-10-11T09:03:22Z</time>
      </trkpt>
      <trkpt lat="48.77535" lon="2.10685">
        <ele>178.119</ele>
        <time>2014-10-11T09:03:28Z</time>
      </trkpt>
      <trkpt lat="48.77537" lon="2.10693">
        <ele>181.65</ele>
        <time>2014-10-11T09:03:32Z</time>
      </trkpt>
      <trkpt lat="48.7754" lon="2.10703">
        <ele>180.649</ele>
        <time>2014-10-11T09:03:37Z</time>
      </trkpt>
      <trkpt lat="48.77547" lon="2.10714">
        <ele>175.176</ele>
        <time>2014-10-11T09:03:43Z</time>
      </trkpt>
      <trkpt lat="48.77549" lon="2.10728">
        <ele>175.637</ele>
        <time>2014-10-11T09:03:48Z</time>
      </trkpt>
      <trkpt lat="48.7755" lon="2.10738">
        <ele>173.956</ele>
        <time>2014-10-11T09:03:54Z</time>
      </trkpt>
      <trkpt lat="48.77551" lon="2.10745">
        <ele>174.196</ele>
        <time>2014-10-11T09:03:59Z</time>
      </trkpt>
      <trkpt lat="48.77551" lon="2.10751">
        <ele>174.407</ele>
        <time>2014-10-11T09:04:03Z</time>
      </trkpt>
      <trkpt lat="48.77553" lon="2.10758">
        <ele>174.107</ele>
        <time>2014-10-11T09:04:10Z</time>
      </trkpt>
      <trkpt lat="48.77554" lon="2.10762">
        <ele>174.21</ele>
        <time>2014-10-11T09:04:13Z</time>
      </trkpt>
      <trkpt lat="48.77562" lon="2.10794">
        <ele>146.003</ele>
        <time>2014-10-11T09:04:34Z</time>
      </trkpt>
      <trkpt lat="48.77566" lon="2.10807">
        <ele>136.582</ele>
        <time>2014-10-11T09:04:40Z</time>
      </trkpt>
      <trkpt lat="48.77568" lon="2.10818">
        <ele>133.246</ele>
        <time>2014-10-11T09:04:44Z</time>
      </trkpt>
      <trkpt lat="48.77569" lon="2.10855">
        <ele>123.497</ele>
        <time>2014-10-11T09:05:37Z</time>
      </trkpt>
      <trkpt lat="48.77569" lon="2.10864">
        <ele>125.787</ele>
        <time>2014-10-11T09:05:43Z</time>
      </trkpt>
      <trkpt lat="48.77568" lon="2.10868">
        <ele>125.156</ele>
        <time>2014-10-11T09:05:46Z</time>
      </trkpt>
      <trkpt lat="48.77567" lon="2.10882">
        <ele>126.106</ele>
        <time>2014-10-11T09:05:52Z</time>
      </trkpt>
      <trkpt lat="48.77567" lon="2.10883">
        <ele>126.276</ele>
        <time>2014-10-11T09:05:53Z</time>
      </trkpt>
      <trkpt lat="48.77565" lon="2.1089">
        <ele>124.135</ele>
        <time>2014-10-11T09:05:57Z</time>
      </trkpt>
      <trkpt lat="48.7756" lon="2.10906">
        <ele>122.475</ele>
        <time>2014-10-11T09:06:04Z</time>
      </trkpt>
      <trkpt lat="48.77557" lon="2.10911">
        <ele>122.485</ele>
        <time>2014-10-11T09:06:06Z</time>
      </trkpt>
      <trkpt lat="48.77555" lon="2.10924">
        <ele>124.416</ele>
        <time>2014-10-11T09:06:11Z</time>
      </trkpt>
      <trkpt lat="48.77552" lon="2.10938">
        <ele>124.195</ele>
        <time>2014-10-11T09:06:16Z</time>
      </trkpt>
      <trkpt lat="48.77551" lon="2.10944">
        <ele>125.756</ele>
        <time>2014-10-11T09:06:20Z</time>
      </trkpt>
      <trkpt lat="48.77547" lon="2.10954">
        <ele>125.376</ele>
        <time>2014-10-11T09:06:24Z</time>
      </trkpt>
      <trkpt lat="48.77545" lon="2.10962">
        <ele>122.615</ele>
        <time>2014-10-11T09:06:28Z</time>
      </trkpt>
      <trkpt lat="48.7754" lon="2.10981">
        <ele>121.695</ele>
        <time>2014-10-11T09:06:35Z</time>
      </trkpt>
      <trkpt lat="48.77533" lon="2.10996">
        <ele>120.875</ele>
        <time>2014-10-11T09:06:41Z</time>
      </trkpt>
      <trkpt lat="48.77532" lon="2.10998">
        <ele>120.455</ele>
        <time>2014-10-11T09:06:42Z</time>
      </trkpt>
      <trkpt lat="48.77526" lon="2.11011">
        <ele>115.933</ele>
        <time>2014-10-11T09:06:49Z</time>
      </trkpt>
      <trkpt lat="48.77518" lon="2.11021">
        <ele>115.015</ele>
        <time>2014-10-11T09:06:55Z</time>
      </trkpt>
      <trkpt lat="48.77512" lon="2.11032">
        <ele>114.255</ele>
        <time>2014-10-11T09:07:00Z</time>
      </trkpt>
      <trkpt lat="48.77511" lon="2.11035">
        <ele>113.585</ele>
        <time>2014-10-11T09:07:01Z</time>
      </trkpt>
      <trkpt lat="48.77505" lon="2.11045">
        <ele>112.745</ele>
        <time>2014-10-11T09:07:07Z</time>
      </trkpt>
      <trkpt lat="48.77504" lon="2.11047">
        <ele>111.488</ele>
        <time>2014-10-11T09:07:09Z</time>
      </trkpt>
      <trkpt lat="48.77495" lon="2.11054">
        <ele>111.355</ele>
        <time>2014-10-11T09:07:14Z</time>
      </trkpt>
      <trkpt lat="48.77492" lon="2.11057">
        <ele>109.691</ele>
        <time>2014-10-11T09:07:16Z</time>
      </trkpt>
      <trkpt lat="48.77482" lon="2.11064">
        <ele>114.929</ele>
        <time>2014-10-11T09:07:22Z</time>
      </trkpt>
      <trkpt lat="48.7748" lon="2.11065">
        <ele>115.518</ele>
        <time>2014-10-11T09:07:23Z</time>
      </trkpt>
      <trkpt lat="48.77469" lon="2.11068">
        <ele>121.464</ele>
        <time>2014-10-11T09:07:29Z</time>
      </trkpt>
      <trkpt lat="48.77465" lon="2.11068">
        <ele>122.283</ele>
        <time>2014-10-11T09:07:31Z</time>
      </trkpt>
      <trkpt lat="48.77454" lon="2.11058">
        <ele>118.69</ele>
        <time>2014-10-11T09:07:38Z</time>
      </trkpt>
      <trkpt lat="48.77442" lon="2.11048">
        <ele>117.237</ele>
        <time>2014-10-11T09:07:44Z</time>
      </trkpt>
      <trkpt lat="48.77438" lon="2.11038">
        <ele>115.445</ele>
        <time>2014-10-11T09:07:48Z</time>
      </trkpt>
      <trkpt lat="48.77431" lon="2.11025">
        <ele>111.974</ele>
        <time>2014-10-11T09:07:54Z</time>
      </trkpt>
      <trkpt lat="48.77432" lon="2.11021">
        <ele>111.856</ele>
        <time>2014-10-11T09:07:56Z</time>
      </trkpt>
      <trkpt lat="48.7743" lon="2.11005">
        <ele>111.391</ele>
        <time>2014-10-11T09:08:03Z</time>
      </trkpt>
      <trkpt lat="48.7743" lon="2.11002">
        <ele>113.86</ele>
        <time>2014-10-11T09:08:05Z</time>
      </trkpt>
      <trkpt lat="48.77428" lon="2.10992">
        <ele>119.232</ele>
        <time>2014-10-11T09:08:11Z</time>
      </trkpt>
      <trkpt lat="48.77427" lon="2.10981">
        <ele>129.129</ele>
        <time>2014-10-11T09:08:17Z</time>
      </trkpt>
      <trkpt lat="48.77428" lon="2.10974">
        <ele>137.651</ele>
        <time>2014-10-11T09:08:21Z</time>
      </trkpt>
      <trkpt lat="48.77426" lon="2.10964">
        <ele>142.014</ele>
        <time>2014-10-11T09:08:26Z</time>
      </trkpt>
      <trkpt lat="48.77422" lon="2.10951">
        <ele>141.747</ele>
        <time>2014-10-11T09:08:32Z</time>
      </trkpt>
      <trkpt lat="48.77419" lon="2.10939">
        <ele>142.922</ele>
        <time>2014-10-11T09:08:36Z</time>
      </trkpt>
      <trkpt lat="48.77414" lon="2.10922">
        <ele>144.631</ele>
        <time>2014-10-11T09:08:42Z</time>
      </trkpt>
      <trkpt lat="48.7741" lon="2.10907">
        <ele>138.911</ele>
        <time>2014-10-11T09:08:47Z</time>
      </trkpt>
      <trkpt lat="48.77407" lon="2.10894">
        <ele>137.059</ele>
        <time>2014-10-11T09:08:52Z</time>
      </trkpt>
      <trkpt lat="48.77407" lon="2.10891">
        <ele>136.049</ele>
        <time>2014-10-11T09:08:53Z</time>
      </trkpt>
      <trkpt lat="48.77405" lon="2.10871">
        <ele>133.691</ele>
        <time>2014-10-11T09:09:01Z</time>
      </trkpt>
      <trkpt lat="48.77399" lon="2.10858">
        <ele>129.701</ele>
        <time>2014-10-11T09:09:07Z</time>
      </trkpt>
      <trkpt lat="48.77398" lon="2.10842">
        <ele>129.48</ele>
        <time>2014-10-11T09:09:14Z</time>
      </trkpt>
      <trkpt lat="48.77396" lon="2.10836">
        <ele>128.33</ele>
        <time>2014-10-11T09:09:17Z</time>
      </trkpt>
      <trkpt lat="48.77391" lon="2.1082">
        <ele>130.506</ele>
        <time>2014-10-11T09:09:23Z</time>
      </trkpt>
      <trkpt lat="48.77385" lon="2.10805">
        <ele>127.98</ele>
        <time>2014-10-11T09:09:27Z</time>
      </trkpt>
      <trkpt lat="48.77377" lon="2.10788">
        <ele>120.616</ele>
        <time>2014-10-11T09:09:33Z</time>
      </trkpt>
      <trkpt lat="48.77377" lon="2.10783">
        <ele>120.381</ele>
        <time>2014-10-11T09:09:35Z</time>
      </trkpt>
      <trkpt lat="48.77378" lon="2.1077">
        <ele>120.49</ele>
        <time>2014-10-11T09:09:40Z</time>
      </trkpt>
      <trkpt lat="48.77379" lon="2.10767">
        <ele>120.818</ele>
        <time>2014-10-11T09:09:41Z</time>
      </trkpt>
      <trkpt lat="48.77374" lon="2.10736">
        <ele>121.721</ele>
        <time>2014-10-11T09:09:49Z</time>
      </trkpt>
      <trkpt lat="48.77373" lon="2.10728">
        <ele>120.962</ele>
        <time>2014-10-11T09:09:51Z</time>
      </trkpt>
      <trkpt lat="48.77373" lon="2.10712">
        <ele>117.84</ele>
        <time>2014-10-11T09:09:57Z</time>
      </trkpt>
      <trkpt lat="48.77374" lon="2.10704">
        <ele>118.267</ele>
        <time>2014-10-11T09:10:00Z</time>
      </trkpt>
      <trkpt lat="48.77379" lon="2.10688">
        <ele>119.582</ele>
        <time>2014-10-11T09:10:07Z</time>
      </trkpt>
      <trkpt lat="48.77382" lon="2.10674">
        <ele>117.229</ele>
        <time>2014-10-11T09:10:12Z</time>
      </trkpt>
      <trkpt lat="48.77384" lon="2.10659">
        <ele>119.613</ele>
        <time>2014-10-11T09:10:19Z</time>
      </trkpt>
      <trkpt lat="48.77388" lon="2.10643">
        <ele>124.475</ele>
        <time>2014-10-11T09:10:25Z</time>
      </trkpt>
      <trkpt lat="48.77392" lon="2.10629">
        <ele>130.223</ele>
        <time>2014-10-11T09:10:31Z</time>
      </trkpt>
      <trkpt lat="48.77397" lon="2.10619">
        <ele>127.985</ele>
        <time>2014-10-11T09:10:36Z</time>
      </trkpt>
      <trkpt lat="48.77406" lon="2.10606">
        <ele>125.335</ele>
        <time>2014-10-11T09:10:42Z</time>
      </trkpt>
      <trkpt lat="48.77407" lon="2.10604">
        <ele>124.531</ele>
        <time>2014-10-11T09:10:43Z</time>
      </trkpt>
      <trkpt lat="48.7741" lon="2.10589">
        <ele>124.444</ele>
        <time>2014-10-11T09:10:48Z</time>
      </trkpt>
      <trkpt lat="48.7741" lon="2.10584">
        <ele>124.195</ele>
        <time>2014-10-11T09:10:50Z</time>
      </trkpt>
      <trkpt lat="48.77412" lon="2.10569">
        <ele>125.401</ele>
        <time>2014-10-11T09:10:56Z</time>
      </trkpt>
      <trkpt lat="48.77413" lon="2.10566">
        <ele>125.079</ele>
        <time>2014-10-11T09:10:57Z</time>
      </trkpt>
      <trkpt lat="48.77414" lon="2.10558">
        <ele>125.22</ele>
        <time>2014-10-11T09:11:02Z</time>
      </trkpt>
      <trkpt lat="48.77416" lon="2.10549">
        <ele>124.566</ele>
        <time>2014-10-11T09:11:06Z</time>
      </trkpt>
      <trkpt lat="48.77419" lon="2.10532">
        <ele>123.497</ele>
        <time>2014-10-11T09:11:13Z</time>
      </trkpt>
      <trkpt lat="48.77421" lon="2.10529">
        <ele>123.506</ele>
        <time>2014-10-11T09:11:15Z</time>
      </trkpt>
      <trkpt lat="48.77427" lon="2.10513">
        <ele>125.33</ele>
        <time>2014-10-11T09:11:21Z</time>
      </trkpt>
      <trkpt lat="48.77432" lon="2.10504">
        <ele>127.012</ele>
        <time>2014-10-11T09:11:27Z</time>
      </trkpt>
      <trkpt lat="48.77437" lon="2.10488">
        <ele>125.074</ele>
        <time>2014-10-11T09:11:35Z</time>
      </trkpt>
      <trkpt lat="48.77441" lon="2.10475">
        <ele>128.422</ele>
        <time>2014-10-11T09:11:41Z</time>
      </trkpt>
      <trkpt lat="48.77446" lon="2.10463">
        <ele>129.743</ele>
        <time>2014-10-11T09:11:46Z</time>
      </trkpt>
      <trkpt lat="48.77452" lon="2.10442">
        <ele>130.764</ele>
        <time>2014-10-11T09:11:55Z</time>
      </trkpt>
      <trkpt lat="48.77456" lon="2.1043">
        <ele>126.697</ele>
        <time>2014-10-11T09:12:02Z</time>
      </trkpt>
      <trkpt lat="48.77462" lon="2.10413">
        <ele>120.583</ele>
        <time>2014-10-11T09:12:07Z</time>
      </trkpt>
      <trkpt lat="48.77466" lon="2.10399">
        <ele>119.796</ele>
        <time>2014-10-11T09:12:13Z</time>
      </trkpt>
      <trkpt lat="48.77468" lon="2.10391">
        <ele>120.152</ele>
        <time>2014-10-11T09:12:16Z</time>
      </trkpt>
      <trkpt lat="48.77474" lon="2.10378">
        <ele>119.074</ele>
        <time>2014-10-11T09:12:22Z</time>
      </trkpt>
      <trkpt lat="48.77479" lon="2.10364">
        <ele>121.485</ele>
        <time>2014-10-11T09:12:28Z</time>
      </trkpt>
      <trkpt lat="48.77484" lon="2.10354">
        <ele>124.276</ele>
        <time>2014-10-11T09:12:33Z</time>
      </trkpt>
      <trkpt lat="48.77489" lon="2.10342">
        <ele>127.319</ele>
        <time>2014-10-11T09:12:38Z</time>
      </trkpt>
      <trkpt lat="48.7749" lon="2.10326">
        <ele>124.649</ele>
        <time>2014-10-11T09:12:43Z</time>
      </trkpt>
      <trkpt lat="48.77492" lon="2.10314">
        <ele>121.689</ele>
        <time>2014-10-11T09:12:47Z</time>
      </trkpt>
      <trkpt lat="48.77496" lon="2.10302">
        <ele>121.581</ele>
        <time>2014-10-11T09:12:53Z</time>
      </trkpt>
      <trkpt lat="48.775" lon="2.10297">
        <ele>121.504</ele>
        <time>2014-10-11T09:12:57Z</time>
      </trkpt>
      <trkpt lat="48.77501" lon="2.1029">
        <ele>120.285</ele>
        <time>2014-10-11T09:13:02Z</time>
      </trkpt>
      <trkpt lat="48.77503" lon="2.10282">
        <ele>122.567</ele>
        <time>2014-10-11T09:13:06Z</time>
      </trkpt>
      <trkpt lat="48.77507" lon="2.10261">
        <ele>124.497</ele>
        <time>2014-10-11T09:13:12Z</time>
      </trkpt>
      <trkpt lat="48.77509" lon="2.10248">
        <ele>129.158</ele>
        <time>2014-10-11T09:13:17Z</time>
      </trkpt>
      <trkpt lat="48.77512" lon="2.10236">
        <ele>123.025</ele>
        <time>2014-10-11T09:13:20Z</time>
      </trkpt>
      <trkpt lat="48.77513" lon="2.10215">
        <ele>118.295</ele>
        <time>2014-10-11T09:13:27Z</time>
      </trkpt>
      <trkpt lat="48.77513" lon="2.10213">
        <ele>117.825</ele>
        <time>2014-10-11T09:13:28Z</time>
      </trkpt>
      <trkpt lat="48.77511" lon="2.10203">
        <ele>117.295</ele>
        <time>2014-10-11T09:13:34Z</time>
      </trkpt>
      <trkpt lat="48.7751" lon="2.10189">
        <ele>121.567</ele>
        <time>2014-10-11T09:13:40Z</time>
      </trkpt>
      <trkpt lat="48.77509" lon="2.10185">
        <ele>121.767</ele>
        <time>2014-10-11T09:13:43Z</time>
      </trkpt>
      <trkpt lat="48.77507" lon="2.1018">
        <ele>125.847</ele>
        <time>2014-10-11T09:13:47Z</time>
      </trkpt>
      <trkpt lat="48.77505" lon="2.10164">
        <ele>130.569</ele>
        <time>2014-10-11T09:13:52Z</time>
      </trkpt>
      <trkpt lat="48.775" lon="2.10143">
        <ele>134.589</ele>
        <time>2014-10-11T09:13:59Z</time>
      </trkpt>
      <trkpt lat="48.77501" lon="2.10123">
        <ele>134.248</ele>
        <time>2014-10-11T09:14:04Z</time>
      </trkpt>
      <trkpt lat="48.775" lon="2.1011">
        <ele>136.667</ele>
        <time>2014-10-11T09:14:09Z</time>
      </trkpt>
      <trkpt lat="48.77503" lon="2.101">
        <ele>136.387</ele>
        <time>2014-10-11T09:14:13Z</time>
      </trkpt>
      <trkpt lat="48.77508" lon="2.10085">
        <ele>135.576</ele>
        <time>2014-10-11T09:14:18Z</time>
      </trkpt>
      <trkpt lat="48.77514" lon="2.10074">
        <ele>131.855</ele>
        <time>2014-10-11T09:14:22Z</time>
      </trkpt>
      <trkpt lat="48.7752" lon="2.10055">
        <ele>132.866</ele>
        <time>2014-10-11T09:14:29Z</time>
      </trkpt>
      <trkpt lat="48.77525" lon="2.10044">
        <ele>129.016</ele>
        <time>2014-10-11T09:14:34Z</time>
      </trkpt>
      <trkpt lat="48.77528" lon="2.10028">
        <ele>126.925</ele>
        <time>2014-10-11T09:14:40Z</time>
      </trkpt>
      <trkpt lat="48.77528" lon="2.1002">
        <ele>123.695</ele>
        <time>2014-10-11T09:14:44Z</time>
      </trkpt>
      <trkpt lat="48.77529" lon="2.10017">
        <ele>122.234</ele>
        <time>2014-10-11T09:14:45Z</time>
      </trkpt>
      <trkpt lat="48.77534" lon="2.10002">
        <ele>122.806</ele>
        <time>2014-10-11T09:14:51Z</time>
      </trkpt>
      <trkpt lat="48.77536" lon="2.09983">
        <ele>129.758</ele>
        <time>2014-10-11T09:14:57Z</time>
      </trkpt>
      <trkpt lat="48.77543" lon="2.09967">
        <ele>130.138</ele>
        <time>2014-10-11T09:15:03Z</time>
      </trkpt>
      <trkpt lat="48.77552" lon="2.0996">
        <ele>129.997</ele>
        <time>2014-10-11T09:15:09Z</time>
      </trkpt>
      <trkpt lat="48.77557" lon="2.09948">
        <ele>128.605</ele>
        <time>2014-10-11T09:15:16Z</time>
      </trkpt>
      <trkpt lat="48.77567" lon="2.09941">
        <ele>123.645</ele>
        <time>2014-10-11T09:15:23Z</time>
      </trkpt>
      <trkpt lat="48.77568" lon="2.0994">
        <ele>122.585</ele>
        <time>2014-10-11T09:15:24Z</time>
      </trkpt>
      <trkpt lat="48.77573" lon="2.09935">
        <ele>124.777</ele>
        <time>2014-10-11T09:15:30Z</time>
      </trkpt>
      <trkpt lat="48.77578" lon="2.09923">
        <ele>126.867</ele>
        <time>2014-10-11T09:15:35Z</time>
      </trkpt>
      <trkpt lat="48.77581" lon="2.09911">
        <ele>127.587</ele>
        <time>2014-10-11T09:15:39Z</time>
      </trkpt>
      <trkpt lat="48.77589" lon="2.09895">
        <ele>123.816</ele>
        <time>2014-10-11T09:15:46Z</time>
      </trkpt>
      <trkpt lat="48.77593" lon="2.09887">
        <ele>121.676</ele>
        <time>2014-10-11T09:15:51Z</time>
      </trkpt>
      <trkpt lat="48.77595" lon="2.09883">
        <ele>122.586</ele>
        <time>2014-10-11T09:15:53Z</time>
      </trkpt>
      <trkpt lat="48.77603" lon="2.09865">
        <ele>119.386</ele>
        <time>2014-10-11T09:16:00Z</time>
      </trkpt>
      <trkpt lat="48.77609" lon="2.09853">
        <ele>117.816</ele>
        <time>2014-10-11T09:16:05Z</time>
      </trkpt>
      <trkpt lat="48.77611" lon="2.09838">
        <ele>124.368</ele>
        <time>2014-10-11T09:16:10Z</time>
      </trkpt>
      <trkpt lat="48.77616" lon="2.09828">
        <ele>125.448</ele>
        <time>2014-10-11T09:16:14Z</time>
      </trkpt>
      <trkpt lat="48.77624" lon="2.09814">
        <ele>127.366</ele>
        <time>2014-10-11T09:16:22Z</time>
      </trkpt>
      <trkpt lat="48.77626" lon="2.09811">
        <ele>126.916</ele>
        <time>2014-10-11T09:16:24Z</time>
      </trkpt>
      <trkpt lat="48.77633" lon="2.098">
        <ele>125.476</ele>
        <time>2014-10-11T09:16:31Z</time>
      </trkpt>
      <trkpt lat="48.77637" lon="2.0979">
        <ele>128.318</ele>
        <time>2014-10-11T09:16:36Z</time>
      </trkpt>
      <trkpt lat="48.77645" lon="2.09774">
        <ele>129.108</ele>
        <time>2014-10-11T09:16:44Z</time>
      </trkpt>
      <trkpt lat="48.77656" lon="2.09762">
        <ele>122.154</ele>
        <time>2014-10-11T09:16:51Z</time>
      </trkpt>
      <trkpt lat="48.77666" lon="2.09752">
        <ele>117.747</ele>
        <time>2014-10-11T09:16:57Z</time>
      </trkpt>
      <trkpt lat="48.77678" lon="2.09743">
        <ele>111.736</ele>
        <time>2014-10-11T09:17:04Z</time>
      </trkpt>
      <trkpt lat="48.77681" lon="2.0974">
        <ele>110.026</ele>
        <time>2014-10-11T09:17:06Z</time>
      </trkpt>
      <trkpt lat="48.77692" lon="2.0973">
        <ele>108.237</ele>
        <time>2014-10-11T09:17:13Z</time>
      </trkpt>
      <trkpt lat="48.77701" lon="2.09724">
        <ele>108.997</ele>
        <time>2014-10-11T09:17:18Z</time>
      </trkpt>
      <trkpt lat="48.77712" lon="2.0972">
        <ele>111.327</ele>
        <time>2014-10-11T09:17:24Z</time>
      </trkpt>
      <trkpt lat="48.77721" lon="2.09714">
        <ele>113.758</ele>
        <time>2014-10-11T09:17:30Z</time>
      </trkpt>
      <trkpt lat="48.77726" lon="2.09706">
        <ele>117.248</ele>
        <time>2014-10-11T09:17:35Z</time>
      </trkpt>
      <trkpt lat="48.77732" lon="2.09697">
        <ele>121.768</ele>
        <time>2014-10-11T09:17:40Z</time>
      </trkpt>
      <trkpt lat="48.77742" lon="2.0969">
        <ele>126.778</ele>
        <time>2014-10-11T09:17:47Z</time>
      </trkpt>
      <trkpt lat="48.77747" lon="2.09687">
        <ele>126.298</ele>
        <time>2014-10-11T09:17:51Z</time>
      </trkpt>
      <trkpt lat="48.77753" lon="2.09684">
        <ele>126.979</ele>
        <time>2014-10-11T09:17:56Z</time>
      </trkpt>
      <trkpt lat="48.77762" lon="2.09673">
        <ele>129.92</ele>
        <time>2014-10-11T09:18:02Z</time>
      </trkpt>
      <trkpt lat="48.77768" lon="2.09667">
        <ele>132.039</ele>
        <time>2014-10-11T09:18:08Z</time>
      </trkpt>
      <trkpt lat="48.77773" lon="2.09657">
        <ele>132.827</ele>
        <time>2014-10-11T09:18:14Z</time>
      </trkpt>
      <trkpt lat="48.77775" lon="2.09647">
        <ele>130.967</ele>
        <time>2014-10-11T09:18:19Z</time>
      </trkpt>
      <trkpt lat="48.77775" lon="2.09645">
        <ele>131.007</ele>
        <time>2014-10-11T09:18:20Z</time>
      </trkpt>
      <trkpt lat="48.77777" lon="2.09638">
        <ele>129.937</ele>
        <time>2014-10-11T09:18:24Z</time>
      </trkpt>
      <trkpt lat="48.77779" lon="2.09624">
        <ele>129.608</ele>
        <time>2014-10-11T09:18:30Z</time>
      </trkpt>
      <trkpt lat="48.7778" lon="2.09607">
        <ele>128.348</ele>
        <time>2014-10-11T09:18:37Z</time>
      </trkpt>
      <trkpt lat="48.77785" lon="2.09595">
        <ele>128.939</ele>
        <time>2014-10-11T09:18:43Z</time>
      </trkpt>
      <trkpt lat="48.77806" lon="2.09567">
        <ele>131.248</ele>
        <time>2014-10-11T09:19:03Z</time>
      </trkpt>
      <trkpt lat="48.77813" lon="2.09558">
        <ele>140.74</ele>
        <time>2014-10-11T09:19:09Z</time>
      </trkpt>
      <trkpt lat="48.77825" lon="2.09547">
        <ele>140.347</ele>
        <time>2014-10-11T09:19:17Z</time>
      </trkpt>
      <trkpt lat="48.77831" lon="2.09541">
        <ele>140.947</ele>
        <time>2014-10-11T09:19:24Z</time>
      </trkpt>
      <trkpt lat="48.77837" lon="2.09533">
        <ele>138.336</ele>
        <time>2014-10-11T09:19:31Z</time>
      </trkpt>
      <trkpt lat="48.77842" lon="2.09529">
        <ele>136.857</ele>
        <time>2014-10-11T09:19:36Z</time>
      </trkpt>
      <trkpt lat="48.77852" lon="2.09529">
        <ele>139.889</ele>
        <time>2014-10-11T09:19:43Z</time>
      </trkpt>
      <trkpt lat="48.77866" lon="2.09532">
        <ele>139.498</ele>
        <time>2014-10-11T09:19:50Z</time>
      </trkpt>
      <trkpt lat="48.77879" lon="2.09535">
        <ele>135.668</ele>
        <time>2014-10-11T09:19:56Z</time>
      </trkpt>
      <trkpt lat="48.77891" lon="2.09539">
        <ele>134.269</ele>
        <time>2014-10-11T09:20:03Z</time>
      </trkpt>
      <trkpt lat="48.77899" lon="2.09539">
        <ele>130.938</ele>
        <time>2014-10-11T09:20:09Z</time>
      </trkpt>
      <trkpt lat="48.77903" lon="2.09538">
        <ele>130.057</ele>
        <time>2014-10-11T09:20:13Z</time>
      </trkpt>
      <trkpt lat="48.77909" lon="2.09537">
        <ele>129.948</ele>
        <time>2014-10-11T09:20:19Z</time>
      </trkpt>
      <trkpt lat="48.77917" lon="2.09543">
        <ele>129.178</ele>
        <time>2014-10-11T09:20:23Z</time>
      </trkpt>
      <trkpt lat="48.77927" lon="2.0955">
        <ele>127.718</ele>
        <time>2014-10-11T09:20:29Z</time>
      </trkpt>
      <trkpt lat="48.77935" lon="2.09555">
        <ele>126.461</ele>
        <time>2014-10-11T09:20:34Z</time>
      </trkpt>
    </trkseg>
  </trk>
</gpx>